<?xml version="1.0" encoding="UTF-8" standalone="no" ?>
<gpx xmlns="http://www.topografix.com/GPX/1/1" xmlns:xsi="http://www.w3.org/2001/XMLSchema-instance" xsi:schemaLocation="http://www.topografix.com/GPX/1/1 http://www.topografix.com/GPX/1/1/gpx.xsd" version="1.1" creator="VisuGPX - https://www.visugpx.com">
  <metadata>
    <name>F26400 Gigors Supières BC</name>
    <desc><![CDATA[File with points/tracks from Locus Map/3.42.0]]></desc>
  </metadata>
  <trk>
    <name><![CDATA[F26400 Gigors Supières BC]]></name>
    <extensions>
      <line xmlns="http://www.topografix.com/GPX/gpx_style/0/2">
        <color>FF0000</color>
        <opacity>0.78</opacity>
        <width>3.0</width>
      </line>
    </extensions>
    <trkseg>
      <trkpt lat="44.79399" lon="5.10814">
        <ele>588.46</ele>
        <time>2019-12-19T08:20:52.000Z</time>
      </trkpt>
      <trkpt lat="44.79392" lon="5.10805">
        <ele>587.68</ele>
        <time>2019-12-19T08:21:07.000Z</time>
      </trkpt>
      <trkpt lat="44.7938" lon="5.10792">
        <ele>585.48</ele>
        <time>2019-12-19T08:21:17.000Z</time>
      </trkpt>
      <trkpt lat="44.79373" lon="5.10781">
        <ele>584.81</ele>
        <time>2019-12-19T08:21:27.000Z</time>
      </trkpt>
      <trkpt lat="44.79364" lon="5.10774">
        <ele>582.72</ele>
        <time>2019-12-19T08:21:38.000Z</time>
      </trkpt>
      <trkpt lat="44.79356" lon="5.10763">
        <ele>582.19</ele>
        <time>2019-12-19T08:21:48.000Z</time>
      </trkpt>
      <trkpt lat="44.79346" lon="5.10752">
        <ele>581.52</ele>
        <time>2019-12-19T08:21:58.000Z</time>
      </trkpt>
      <trkpt lat="44.7934" lon="5.10737">
        <ele>582.98</ele>
        <time>2019-12-19T08:22:08.000Z</time>
      </trkpt>
      <trkpt lat="44.79335" lon="5.10723">
        <ele>584.9</ele>
        <time>2019-12-19T08:22:18.000Z</time>
      </trkpt>
      <trkpt lat="44.79328" lon="5.10711">
        <ele>585.94</ele>
        <time>2019-12-19T08:22:28.000Z</time>
      </trkpt>
      <trkpt lat="44.79319" lon="5.10699">
        <ele>586.67</ele>
        <time>2019-12-19T08:22:38.000Z</time>
      </trkpt>
      <trkpt lat="44.79311" lon="5.10686">
        <ele>587.63</ele>
        <time>2019-12-19T08:22:48.000Z</time>
      </trkpt>
      <trkpt lat="44.79302" lon="5.10674">
        <ele>588.15</ele>
        <time>2019-12-19T08:22:58.000Z</time>
      </trkpt>
      <trkpt lat="44.79296" lon="5.1066">
        <ele>589.95</ele>
        <time>2019-12-19T08:23:08.000Z</time>
      </trkpt>
      <trkpt lat="44.79288" lon="5.10648">
        <ele>590.9</ele>
        <time>2019-12-19T08:23:18.000Z</time>
      </trkpt>
      <trkpt lat="44.7928" lon="5.10635">
        <ele>591.58</ele>
        <time>2019-12-19T08:23:28.000Z</time>
      </trkpt>
      <trkpt lat="44.79269" lon="5.10625">
        <ele>589.95</ele>
        <time>2019-12-19T08:23:38.000Z</time>
      </trkpt>
      <trkpt lat="44.79256" lon="5.10616">
        <ele>586.97</ele>
        <time>2019-12-19T08:23:48.000Z</time>
      </trkpt>
      <trkpt lat="44.79243" lon="5.10606">
        <ele>583.49</ele>
        <time>2019-12-19T08:23:58.000Z</time>
      </trkpt>
      <trkpt lat="44.79241" lon="5.10592">
        <ele>583.75</ele>
        <time>2019-12-19T08:24:08.000Z</time>
      </trkpt>
      <trkpt lat="44.79248" lon="5.10584">
        <ele>587.17</ele>
        <time>2019-12-19T08:25:48.000Z</time>
      </trkpt>
      <trkpt lat="44.79257" lon="5.10574">
        <ele>590.85</ele>
        <time>2019-12-19T08:25:58.000Z</time>
      </trkpt>
      <trkpt lat="44.79262" lon="5.10557">
        <ele>592.16</ele>
        <time>2019-12-19T08:26:08.000Z</time>
      </trkpt>
      <trkpt lat="44.79262" lon="5.10538">
        <ele>590.34</ele>
        <time>2019-12-19T08:26:18.000Z</time>
      </trkpt>
      <trkpt lat="44.79261" lon="5.10519">
        <ele>586.83</ele>
        <time>2019-12-19T08:26:28.000Z</time>
      </trkpt>
      <trkpt lat="44.7926" lon="5.10499">
        <ele>584.08</ele>
        <time>2019-12-19T08:26:38.000Z</time>
      </trkpt>
      <trkpt lat="44.79258" lon="5.10479">
        <ele>582.12</ele>
        <time>2019-12-19T08:26:48.000Z</time>
      </trkpt>
      <trkpt lat="44.79254" lon="5.1046">
        <ele>579.38</ele>
        <time>2019-12-19T08:26:58.000Z</time>
      </trkpt>
      <trkpt lat="44.79254" lon="5.10443">
        <ele>578.58</ele>
        <time>2019-12-19T08:27:08.000Z</time>
      </trkpt>
      <trkpt lat="44.79257" lon="5.10431">
        <ele>578.72</ele>
        <time>2019-12-19T08:27:20.000Z</time>
      </trkpt>
      <trkpt lat="44.79267" lon="5.10419">
        <ele>580.48</ele>
        <time>2019-12-19T08:27:30.000Z</time>
      </trkpt>
      <trkpt lat="44.79275" lon="5.10408">
        <ele>580.82</ele>
        <time>2019-12-19T08:27:40.000Z</time>
      </trkpt>
      <trkpt lat="44.79284" lon="5.10395">
        <ele>580.5</ele>
        <time>2019-12-19T08:27:50.000Z</time>
      </trkpt>
      <trkpt lat="44.79291" lon="5.10382">
        <ele>579.62</ele>
        <time>2019-12-19T08:28:00.000Z</time>
      </trkpt>
      <trkpt lat="44.79299" lon="5.10371">
        <ele>579.63</ele>
        <time>2019-12-19T08:28:10.000Z</time>
      </trkpt>
      <trkpt lat="44.79307" lon="5.10357">
        <ele>579.96</ele>
        <time>2019-12-19T08:28:20.000Z</time>
      </trkpt>
      <trkpt lat="44.79313" lon="5.10342">
        <ele>580.21</ele>
        <time>2019-12-19T08:28:30.000Z</time>
      </trkpt>
      <trkpt lat="44.79318" lon="5.10327">
        <ele>580.81</ele>
        <time>2019-12-19T08:28:40.000Z</time>
      </trkpt>
      <trkpt lat="44.79325" lon="5.10312">
        <ele>582.45</ele>
        <time>2019-12-19T08:28:50.000Z</time>
      </trkpt>
      <trkpt lat="44.79332" lon="5.10296">
        <ele>584.44</ele>
        <time>2019-12-19T08:29:00.000Z</time>
      </trkpt>
      <trkpt lat="44.79334" lon="5.1028">
        <ele>584.61</ele>
        <time>2019-12-19T08:29:10.000Z</time>
      </trkpt>
      <trkpt lat="44.79337" lon="5.10265">
        <ele>585.64</ele>
        <time>2019-12-19T08:29:20.000Z</time>
      </trkpt>
      <trkpt lat="44.79339" lon="5.10247">
        <ele>586.22</ele>
        <time>2019-12-19T08:29:30.000Z</time>
      </trkpt>
      <trkpt lat="44.79339" lon="5.10232">
        <ele>586.4</ele>
        <time>2019-12-19T08:29:40.000Z</time>
      </trkpt>
      <trkpt lat="44.79338" lon="5.10219">
        <ele>586.77</ele>
        <time>2019-12-19T08:29:51.000Z</time>
      </trkpt>
      <trkpt lat="44.79336" lon="5.10202">
        <ele>587.35</ele>
        <time>2019-12-19T08:30:01.000Z</time>
      </trkpt>
      <trkpt lat="44.79339" lon="5.10189">
        <ele>588.81</ele>
        <time>2019-12-19T08:30:11.000Z</time>
      </trkpt>
      <trkpt lat="44.79348" lon="5.10184">
        <ele>590.55</ele>
        <time>2019-12-19T08:30:49.000Z</time>
      </trkpt>
      <trkpt lat="44.79359" lon="5.10182">
        <ele>592.26</ele>
        <time>2019-12-19T08:30:59.000Z</time>
      </trkpt>
      <trkpt lat="44.79371" lon="5.10178">
        <ele>593.26</ele>
        <time>2019-12-19T08:31:09.000Z</time>
      </trkpt>
      <trkpt lat="44.79383" lon="5.10175">
        <ele>593.7</ele>
        <time>2019-12-19T08:31:19.000Z</time>
      </trkpt>
      <trkpt lat="44.79393" lon="5.10171">
        <ele>593.43</ele>
        <time>2019-12-19T08:32:56.000Z</time>
      </trkpt>
      <trkpt lat="44.79405" lon="5.10168">
        <ele>593.11</ele>
        <time>2019-12-19T08:33:06.000Z</time>
      </trkpt>
      <trkpt lat="44.79416" lon="5.1016">
        <ele>591.73</ele>
        <time>2019-12-19T08:33:16.000Z</time>
      </trkpt>
      <trkpt lat="44.79425" lon="5.10151">
        <ele>590.55</ele>
        <time>2019-12-19T08:33:26.000Z</time>
      </trkpt>
      <trkpt lat="44.79432" lon="5.10141">
        <ele>589.35</ele>
        <time>2019-12-19T08:33:59.000Z</time>
      </trkpt>
      <trkpt lat="44.79443" lon="5.10128">
        <ele>588.08</ele>
        <time>2019-12-19T08:34:09.000Z</time>
      </trkpt>
      <trkpt lat="44.79453" lon="5.10117">
        <ele>587.12</ele>
        <time>2019-12-19T08:34:19.000Z</time>
      </trkpt>
      <trkpt lat="44.7946" lon="5.10107">
        <ele>586.16</ele>
        <time>2019-12-19T08:34:30.000Z</time>
      </trkpt>
      <trkpt lat="44.79466" lon="5.10097">
        <ele>584.89</ele>
        <time>2019-12-19T08:34:51.000Z</time>
      </trkpt>
      <trkpt lat="44.79474" lon="5.1009">
        <ele>583.84</ele>
        <time>2019-12-19T08:35:03.000Z</time>
      </trkpt>
      <trkpt lat="44.79482" lon="5.10076">
        <ele>581.27</ele>
        <time>2019-12-19T08:35:13.000Z</time>
      </trkpt>
      <trkpt lat="44.79492" lon="5.10062">
        <ele>578.17</ele>
        <time>2019-12-19T08:35:23.000Z</time>
      </trkpt>
      <trkpt lat="44.79503" lon="5.10054">
        <ele>576.31</ele>
        <time>2019-12-19T08:35:33.000Z</time>
      </trkpt>
      <trkpt lat="44.79515" lon="5.10057">
        <ele>576.16</ele>
        <time>2019-12-19T08:35:43.000Z</time>
      </trkpt>
      <trkpt lat="44.79529" lon="5.1006">
        <ele>575.69</ele>
        <time>2019-12-19T08:35:53.000Z</time>
      </trkpt>
      <trkpt lat="44.79538" lon="5.10063">
        <ele>575.12</ele>
        <time>2019-12-19T08:36:14.000Z</time>
      </trkpt>
      <trkpt lat="44.7955" lon="5.10063">
        <ele>573.91</ele>
        <time>2019-12-19T08:36:24.000Z</time>
      </trkpt>
      <trkpt lat="44.79563" lon="5.10066">
        <ele>572.86</ele>
        <time>2019-12-19T08:36:34.000Z</time>
      </trkpt>
      <trkpt lat="44.79576" lon="5.10068">
        <ele>571.63</ele>
        <time>2019-12-19T08:36:44.000Z</time>
      </trkpt>
      <trkpt lat="44.79591" lon="5.10071">
        <ele>570.77</ele>
        <time>2019-12-19T08:36:54.000Z</time>
      </trkpt>
      <trkpt lat="44.79604" lon="5.10071">
        <ele>569.92</ele>
        <time>2019-12-19T08:37:04.000Z</time>
      </trkpt>
      <trkpt lat="44.79617" lon="5.10072">
        <ele>569.16</ele>
        <time>2019-12-19T08:37:14.000Z</time>
      </trkpt>
      <trkpt lat="44.7963" lon="5.10074">
        <ele>568.65</ele>
        <time>2019-12-19T08:37:24.000Z</time>
      </trkpt>
      <trkpt lat="44.79644" lon="5.10075">
        <ele>568</ele>
        <time>2019-12-19T08:37:34.000Z</time>
      </trkpt>
      <trkpt lat="44.79658" lon="5.10075">
        <ele>567.31</ele>
        <time>2019-12-19T08:37:44.000Z</time>
      </trkpt>
      <trkpt lat="44.7967" lon="5.10075">
        <ele>566.61</ele>
        <time>2019-12-19T08:37:54.000Z</time>
      </trkpt>
      <trkpt lat="44.79679" lon="5.10066">
        <ele>565.12</ele>
        <time>2019-12-19T08:38:04.000Z</time>
      </trkpt>
      <trkpt lat="44.79688" lon="5.10051">
        <ele>562.71</ele>
        <time>2019-12-19T08:38:14.000Z</time>
      </trkpt>
      <trkpt lat="44.79697" lon="5.10042">
        <ele>560.84</ele>
        <time>2019-12-19T08:38:24.000Z</time>
      </trkpt>
      <trkpt lat="44.79709" lon="5.10039">
        <ele>559.27</ele>
        <time>2019-12-19T08:38:34.000Z</time>
      </trkpt>
      <trkpt lat="44.79721" lon="5.10037">
        <ele>557.69</ele>
        <time>2019-12-19T08:38:44.000Z</time>
      </trkpt>
      <trkpt lat="44.79734" lon="5.10037">
        <ele>556.04</ele>
        <time>2019-12-19T08:38:54.000Z</time>
      </trkpt>
      <trkpt lat="44.79749" lon="5.10038">
        <ele>553.87</ele>
        <time>2019-12-19T08:39:04.000Z</time>
      </trkpt>
      <trkpt lat="44.79762" lon="5.10037">
        <ele>551.39</ele>
        <time>2019-12-19T08:39:14.000Z</time>
      </trkpt>
      <trkpt lat="44.79775" lon="5.1004">
        <ele>549.1</ele>
        <time>2019-12-19T08:39:24.000Z</time>
      </trkpt>
      <trkpt lat="44.79788" lon="5.10043">
        <ele>546.72</ele>
        <time>2019-12-19T08:39:34.000Z</time>
      </trkpt>
      <trkpt lat="44.79799" lon="5.10052">
        <ele>547.29</ele>
        <time>2019-12-19T08:39:44.000Z</time>
      </trkpt>
      <trkpt lat="44.79809" lon="5.10059">
        <ele>547.49</ele>
        <time>2019-12-19T08:39:54.000Z</time>
      </trkpt>
      <trkpt lat="44.7982" lon="5.10055">
        <ele>543.34</ele>
        <time>2019-12-19T08:40:04.000Z</time>
      </trkpt>
      <trkpt lat="44.79829" lon="5.10052">
        <ele>540.36</ele>
        <time>2019-12-19T08:40:14.000Z</time>
      </trkpt>
      <trkpt lat="44.79841" lon="5.10051">
        <ele>537.52</ele>
        <time>2019-12-19T08:40:24.000Z</time>
      </trkpt>
      <trkpt lat="44.79852" lon="5.10054">
        <ele>536.04</ele>
        <time>2019-12-19T08:40:34.000Z</time>
      </trkpt>
      <trkpt lat="44.7986" lon="5.10065">
        <ele>538.12</ele>
        <time>2019-12-19T08:40:44.000Z</time>
      </trkpt>
      <trkpt lat="44.7987" lon="5.10074">
        <ele>539.18</ele>
        <time>2019-12-19T08:40:54.000Z</time>
      </trkpt>
      <trkpt lat="44.79885" lon="5.10077">
        <ele>536.6</ele>
        <time>2019-12-19T08:41:04.000Z</time>
      </trkpt>
      <trkpt lat="44.79899" lon="5.10085">
        <ele>536.12</ele>
        <time>2019-12-19T08:41:14.000Z</time>
      </trkpt>
      <trkpt lat="44.79911" lon="5.10088">
        <ele>534.56</ele>
        <time>2019-12-19T08:41:24.000Z</time>
      </trkpt>
      <trkpt lat="44.7992" lon="5.10084">
        <ele>531.51</ele>
        <time>2019-12-19T08:41:34.000Z</time>
      </trkpt>
      <trkpt lat="44.79931" lon="5.10081">
        <ele>528.84</ele>
        <time>2019-12-19T08:41:44.000Z</time>
      </trkpt>
      <trkpt lat="44.79943" lon="5.10085">
        <ele>528.68</ele>
        <time>2019-12-19T08:41:54.000Z</time>
      </trkpt>
      <trkpt lat="44.79944" lon="5.10072">
        <ele>524.53</ele>
        <time>2019-12-19T08:42:08.000Z</time>
      </trkpt>
      <trkpt lat="44.79952" lon="5.10063">
        <ele>521.08</ele>
        <time>2019-12-19T08:42:18.000Z</time>
      </trkpt>
      <trkpt lat="44.79963" lon="5.10066">
        <ele>520.59</ele>
        <time>2019-12-19T08:42:28.000Z</time>
      </trkpt>
      <trkpt lat="44.79976" lon="5.10063">
        <ele>518.74</ele>
        <time>2019-12-19T08:42:38.000Z</time>
      </trkpt>
      <trkpt lat="44.7999" lon="5.10062">
        <ele>517.35</ele>
        <time>2019-12-19T08:42:48.000Z</time>
      </trkpt>
      <trkpt lat="44.80003" lon="5.10059">
        <ele>515.5</ele>
        <time>2019-12-19T08:42:58.000Z</time>
      </trkpt>
      <trkpt lat="44.80015" lon="5.10053">
        <ele>513.04</ele>
        <time>2019-12-19T08:43:08.000Z</time>
      </trkpt>
      <trkpt lat="44.80027" lon="5.10047">
        <ele>510.63</ele>
        <time>2019-12-19T08:43:18.000Z</time>
      </trkpt>
      <trkpt lat="44.80037" lon="5.10041">
        <ele>508.82</ele>
        <time>2019-12-19T08:43:28.000Z</time>
      </trkpt>
      <trkpt lat="44.80046" lon="5.10043">
        <ele>508.28</ele>
        <time>2019-12-19T08:43:49.000Z</time>
      </trkpt>
      <trkpt lat="44.80055" lon="5.10045">
        <ele>508.11</ele>
        <time>2019-12-19T08:44:03.000Z</time>
      </trkpt>
      <trkpt lat="44.80066" lon="5.10043">
        <ele>508.07</ele>
        <time>2019-12-19T08:44:13.000Z</time>
      </trkpt>
      <trkpt lat="44.80075" lon="5.10041">
        <ele>508.52</ele>
        <time>2019-12-19T08:44:23.000Z</time>
      </trkpt>
      <trkpt lat="44.80074" lon="5.10028">
        <ele>507.68</ele>
        <time>2019-12-19T08:44:33.000Z</time>
      </trkpt>
      <trkpt lat="44.8007" lon="5.10014">
        <ele>506.52</ele>
        <time>2019-12-19T08:44:43.000Z</time>
      </trkpt>
      <trkpt lat="44.80059" lon="5.10004">
        <ele>504.86</ele>
        <time>2019-12-19T08:44:53.000Z</time>
      </trkpt>
      <trkpt lat="44.80047" lon="5.09989">
        <ele>502.55</ele>
        <time>2019-12-19T08:45:03.000Z</time>
      </trkpt>
      <trkpt lat="44.80039" lon="5.09975">
        <ele>500.25</ele>
        <time>2019-12-19T08:45:13.000Z</time>
      </trkpt>
      <trkpt lat="44.80035" lon="5.09955">
        <ele>496.99</ele>
        <time>2019-12-19T08:45:23.000Z</time>
      </trkpt>
      <trkpt lat="44.80034" lon="5.09934">
        <ele>493.89</ele>
        <time>2019-12-19T08:45:33.000Z</time>
      </trkpt>
      <trkpt lat="44.80032" lon="5.09915">
        <ele>491.08</ele>
        <time>2019-12-19T08:45:43.000Z</time>
      </trkpt>
      <trkpt lat="44.80031" lon="5.09897">
        <ele>488.51</ele>
        <time>2019-12-19T08:45:53.000Z</time>
      </trkpt>
      <trkpt lat="44.80031" lon="5.09878">
        <ele>486.56</ele>
        <time>2019-12-19T08:46:03.000Z</time>
      </trkpt>
      <trkpt lat="44.80032" lon="5.09857">
        <ele>484.75</ele>
        <time>2019-12-19T08:46:13.000Z</time>
      </trkpt>
      <trkpt lat="44.80028" lon="5.09841">
        <ele>482.42</ele>
        <time>2019-12-19T08:46:23.000Z</time>
      </trkpt>
      <trkpt lat="44.80019" lon="5.0983">
        <ele>479.21</ele>
        <time>2019-12-19T08:46:33.000Z</time>
      </trkpt>
      <trkpt lat="44.80008" lon="5.09818">
        <ele>475.72</ele>
        <time>2019-12-19T08:46:43.000Z</time>
      </trkpt>
      <trkpt lat="44.80002" lon="5.09801">
        <ele>473.36</ele>
        <time>2019-12-19T08:46:53.000Z</time>
      </trkpt>
      <trkpt lat="44.79998" lon="5.09783">
        <ele>471.42</ele>
        <time>2019-12-19T08:47:03.000Z</time>
      </trkpt>
      <trkpt lat="44.79994" lon="5.09765">
        <ele>469.59</ele>
        <time>2019-12-19T08:47:13.000Z</time>
      </trkpt>
      <trkpt lat="44.7999" lon="5.09748">
        <ele>468.24</ele>
        <time>2019-12-19T08:47:23.000Z</time>
      </trkpt>
      <trkpt lat="44.7999" lon="5.09728">
        <ele>467.54</ele>
        <time>2019-12-19T08:47:33.000Z</time>
      </trkpt>
      <trkpt lat="44.79991" lon="5.09708">
        <ele>467.31</ele>
        <time>2019-12-19T08:47:43.000Z</time>
      </trkpt>
      <trkpt lat="44.79986" lon="5.09689">
        <ele>466.29</ele>
        <time>2019-12-19T08:47:53.000Z</time>
      </trkpt>
      <trkpt lat="44.79978" lon="5.09672">
        <ele>464.98</ele>
        <time>2019-12-19T08:48:03.000Z</time>
      </trkpt>
      <trkpt lat="44.79967" lon="5.09662">
        <ele>463.76</ele>
        <time>2019-12-19T08:48:13.000Z</time>
      </trkpt>
      <trkpt lat="44.79963" lon="5.0965">
        <ele>463.04</ele>
        <time>2019-12-19T08:48:25.000Z</time>
      </trkpt>
      <trkpt lat="44.79959" lon="5.09637">
        <ele>462.26</ele>
        <time>2019-12-19T08:48:37.000Z</time>
      </trkpt>
      <trkpt lat="44.79956" lon="5.0962">
        <ele>461.42</ele>
        <time>2019-12-19T08:48:47.000Z</time>
      </trkpt>
      <trkpt lat="44.79956" lon="5.09602">
        <ele>461.33</ele>
        <time>2019-12-19T08:48:57.000Z</time>
      </trkpt>
      <trkpt lat="44.79953" lon="5.09584">
        <ele>461.77</ele>
        <time>2019-12-19T08:49:07.000Z</time>
      </trkpt>
      <trkpt lat="44.7995" lon="5.09566">
        <ele>462.94</ele>
        <time>2019-12-19T08:49:17.000Z</time>
      </trkpt>
      <trkpt lat="44.79949" lon="5.09549">
        <ele>464.25</ele>
        <time>2019-12-19T08:49:27.000Z</time>
      </trkpt>
      <trkpt lat="44.79943" lon="5.09531">
        <ele>464.33</ele>
        <time>2019-12-19T08:49:37.000Z</time>
      </trkpt>
      <trkpt lat="44.79936" lon="5.09516">
        <ele>462.38</ele>
        <time>2019-12-19T08:49:47.000Z</time>
      </trkpt>
      <trkpt lat="44.79929" lon="5.09499">
        <ele>461.29</ele>
        <time>2019-12-19T08:49:57.000Z</time>
      </trkpt>
      <trkpt lat="44.79922" lon="5.09483">
        <ele>462.01</ele>
        <time>2019-12-19T08:50:07.000Z</time>
      </trkpt>
      <trkpt lat="44.79915" lon="5.09469">
        <ele>463.61</ele>
        <time>2019-12-19T08:50:17.000Z</time>
      </trkpt>
      <trkpt lat="44.79907" lon="5.09455">
        <ele>465.41</ele>
        <time>2019-12-19T08:50:27.000Z</time>
      </trkpt>
      <trkpt lat="44.79898" lon="5.09441">
        <ele>466.72</ele>
        <time>2019-12-19T08:50:37.000Z</time>
      </trkpt>
      <trkpt lat="44.79888" lon="5.09427">
        <ele>466.66</ele>
        <time>2019-12-19T08:50:47.000Z</time>
      </trkpt>
      <trkpt lat="44.79881" lon="5.0941">
        <ele>467.1</ele>
        <time>2019-12-19T08:50:57.000Z</time>
      </trkpt>
      <trkpt lat="44.79872" lon="5.09396">
        <ele>464.76</ele>
        <time>2019-12-19T08:51:07.000Z</time>
      </trkpt>
      <trkpt lat="44.79864" lon="5.09382">
        <ele>461.4</ele>
        <time>2019-12-19T08:51:17.000Z</time>
      </trkpt>
      <trkpt lat="44.79856" lon="5.09364">
        <ele>458.17</ele>
        <time>2019-12-19T08:51:27.000Z</time>
      </trkpt>
      <trkpt lat="44.79848" lon="5.09349">
        <ele>454.75</ele>
        <time>2019-12-19T08:51:37.000Z</time>
      </trkpt>
      <trkpt lat="44.79839" lon="5.09338">
        <ele>450.58</ele>
        <time>2019-12-19T08:51:47.000Z</time>
      </trkpt>
      <trkpt lat="44.79831" lon="5.09328">
        <ele>447.15</ele>
        <time>2019-12-19T08:51:57.000Z</time>
      </trkpt>
      <trkpt lat="44.79819" lon="5.09315">
        <ele>443.18</ele>
        <time>2019-12-19T08:52:07.000Z</time>
      </trkpt>
      <trkpt lat="44.79807" lon="5.09312">
        <ele>440.6</ele>
        <time>2019-12-19T08:52:17.000Z</time>
      </trkpt>
      <trkpt lat="44.79798" lon="5.09317">
        <ele>439.25</ele>
        <time>2019-12-19T08:52:30.000Z</time>
      </trkpt>
      <trkpt lat="44.79786" lon="5.09324">
        <ele>438.2</ele>
        <time>2019-12-19T08:52:40.000Z</time>
      </trkpt>
      <trkpt lat="44.79777" lon="5.09328">
        <ele>437.69</ele>
        <time>2019-12-19T08:52:53.000Z</time>
      </trkpt>
      <trkpt lat="44.79763" lon="5.09335">
        <ele>437.04</ele>
        <time>2019-12-19T08:53:03.000Z</time>
      </trkpt>
      <trkpt lat="44.79751" lon="5.09341">
        <ele>436.27</ele>
        <time>2019-12-19T08:53:13.000Z</time>
      </trkpt>
      <trkpt lat="44.79738" lon="5.09345">
        <ele>435.24</ele>
        <time>2019-12-19T08:53:23.000Z</time>
      </trkpt>
      <trkpt lat="44.79729" lon="5.09344">
        <ele>434.47</ele>
        <time>2019-12-19T08:53:33.000Z</time>
      </trkpt>
      <trkpt lat="44.79722" lon="5.09334">
        <ele>433.73</ele>
        <time>2019-12-19T08:53:57.000Z</time>
      </trkpt>
      <trkpt lat="44.79726" lon="5.0932">
        <ele>433.79</ele>
        <time>2019-12-19T08:54:07.000Z</time>
      </trkpt>
      <trkpt lat="44.79733" lon="5.09306">
        <ele>434.33</ele>
        <time>2019-12-19T08:54:17.000Z</time>
      </trkpt>
      <trkpt lat="44.7974" lon="5.09291">
        <ele>435.12</ele>
        <time>2019-12-19T08:54:27.000Z</time>
      </trkpt>
      <trkpt lat="44.79747" lon="5.09278">
        <ele>436.07</ele>
        <time>2019-12-19T08:54:37.000Z</time>
      </trkpt>
      <trkpt lat="44.79754" lon="5.09264">
        <ele>437.2</ele>
        <time>2019-12-19T08:54:47.000Z</time>
      </trkpt>
      <trkpt lat="44.7976" lon="5.09249">
        <ele>438.1</ele>
        <time>2019-12-19T08:54:57.000Z</time>
      </trkpt>
      <trkpt lat="44.79757" lon="5.09237">
        <ele>438.01</ele>
        <time>2019-12-19T08:55:08.000Z</time>
      </trkpt>
      <trkpt lat="44.79748" lon="5.09228">
        <ele>436.94</ele>
        <time>2019-12-19T08:55:18.000Z</time>
      </trkpt>
      <trkpt lat="44.79743" lon="5.09217">
        <ele>436.2</ele>
        <time>2019-12-19T08:55:43.000Z</time>
      </trkpt>
      <trkpt lat="44.79735" lon="5.09204">
        <ele>435.25</ele>
        <time>2019-12-19T08:55:53.000Z</time>
      </trkpt>
      <trkpt lat="44.79726" lon="5.0919">
        <ele>434.62</ele>
        <time>2019-12-19T08:56:03.000Z</time>
      </trkpt>
      <trkpt lat="44.79719" lon="5.09178">
        <ele>434.6</ele>
        <time>2019-12-19T08:56:13.000Z</time>
      </trkpt>
      <trkpt lat="44.79714" lon="5.09161">
        <ele>435.31</ele>
        <time>2019-12-19T08:56:23.000Z</time>
      </trkpt>
      <trkpt lat="44.7971" lon="5.09145">
        <ele>436.47</ele>
        <time>2019-12-19T08:56:33.000Z</time>
      </trkpt>
      <trkpt lat="44.79705" lon="5.09129">
        <ele>437.8</ele>
        <time>2019-12-19T08:56:43.000Z</time>
      </trkpt>
      <trkpt lat="44.79699" lon="5.09115">
        <ele>438.99</ele>
        <time>2019-12-19T08:56:53.000Z</time>
      </trkpt>
      <trkpt lat="44.79694" lon="5.09101">
        <ele>440.3</ele>
        <time>2019-12-19T08:57:03.000Z</time>
      </trkpt>
      <trkpt lat="44.79689" lon="5.09085">
        <ele>441.52</ele>
        <time>2019-12-19T08:57:13.000Z</time>
      </trkpt>
      <trkpt lat="44.79685" lon="5.09068">
        <ele>442.97</ele>
        <time>2019-12-19T08:57:23.000Z</time>
      </trkpt>
      <trkpt lat="44.7968" lon="5.09053">
        <ele>444.11</ele>
        <time>2019-12-19T08:57:33.000Z</time>
      </trkpt>
      <trkpt lat="44.79674" lon="5.09038">
        <ele>445.12</ele>
        <time>2019-12-19T08:57:43.000Z</time>
      </trkpt>
      <trkpt lat="44.79669" lon="5.09022">
        <ele>446.11</ele>
        <time>2019-12-19T08:57:53.000Z</time>
      </trkpt>
      <trkpt lat="44.79661" lon="5.09014">
        <ele>446.1</ele>
        <time>2019-12-19T08:58:05.000Z</time>
      </trkpt>
      <trkpt lat="44.79652" lon="5.09005">
        <ele>445.94</ele>
        <time>2019-12-19T08:58:15.000Z</time>
      </trkpt>
      <trkpt lat="44.79641" lon="5.08995">
        <ele>445.93</ele>
        <time>2019-12-19T08:58:25.000Z</time>
      </trkpt>
      <trkpt lat="44.79631" lon="5.08988">
        <ele>445.97</ele>
        <time>2019-12-19T08:58:35.000Z</time>
      </trkpt>
      <trkpt lat="44.79622" lon="5.0898">
        <ele>446.09</ele>
        <time>2019-12-19T08:58:45.000Z</time>
      </trkpt>
      <trkpt lat="44.79612" lon="5.08974">
        <ele>446.15</ele>
        <time>2019-12-19T08:58:55.000Z</time>
      </trkpt>
      <trkpt lat="44.79601" lon="5.08966">
        <ele>446.37</ele>
        <time>2019-12-19T08:59:05.000Z</time>
      </trkpt>
      <trkpt lat="44.79591" lon="5.08956">
        <ele>446.73</ele>
        <time>2019-12-19T08:59:15.000Z</time>
      </trkpt>
      <trkpt lat="44.7958" lon="5.08949">
        <ele>446.33</ele>
        <time>2019-12-19T08:59:25.000Z</time>
      </trkpt>
      <trkpt lat="44.79571" lon="5.08937">
        <ele>446.43</ele>
        <time>2019-12-19T08:59:35.000Z</time>
      </trkpt>
      <trkpt lat="44.79566" lon="5.08926">
        <ele>446.69</ele>
        <time>2019-12-19T08:59:45.000Z</time>
      </trkpt>
      <trkpt lat="44.79573" lon="5.08918">
        <ele>448.48</ele>
        <time>2019-12-19T09:00:03.000Z</time>
      </trkpt>
      <trkpt lat="44.79585" lon="5.08918">
        <ele>450.07</ele>
        <time>2019-12-19T09:00:13.000Z</time>
      </trkpt>
      <trkpt lat="44.79593" lon="5.08914">
        <ele>451.31</ele>
        <time>2019-12-19T09:00:24.000Z</time>
      </trkpt>
      <trkpt lat="44.79604" lon="5.08911">
        <ele>452.32</ele>
        <time>2019-12-19T09:00:34.000Z</time>
      </trkpt>
      <trkpt lat="44.79615" lon="5.08912">
        <ele>452.85</ele>
        <time>2019-12-19T09:00:44.000Z</time>
      </trkpt>
      <trkpt lat="44.79625" lon="5.08913">
        <ele>453.14</ele>
        <time>2019-12-19T09:00:55.000Z</time>
      </trkpt>
      <trkpt lat="44.79634" lon="5.0891">
        <ele>453.66</ele>
        <time>2019-12-19T09:01:05.000Z</time>
      </trkpt>
      <trkpt lat="44.79644" lon="5.0891">
        <ele>454.06</ele>
        <time>2019-12-19T09:01:15.000Z</time>
      </trkpt>
      <trkpt lat="44.79654" lon="5.08909">
        <ele>454.65</ele>
        <time>2019-12-19T09:01:25.000Z</time>
      </trkpt>
      <trkpt lat="44.79666" lon="5.08906">
        <ele>455.64</ele>
        <time>2019-12-19T09:01:35.000Z</time>
      </trkpt>
      <trkpt lat="44.79675" lon="5.08907">
        <ele>456.51</ele>
        <time>2019-12-19T09:01:45.000Z</time>
      </trkpt>
      <trkpt lat="44.79684" lon="5.08905">
        <ele>457.58</ele>
        <time>2019-12-19T09:02:15.000Z</time>
      </trkpt>
      <trkpt lat="44.79693" lon="5.08904">
        <ele>458.58</ele>
        <time>2019-12-19T09:02:25.000Z</time>
      </trkpt>
      <trkpt lat="44.79703" lon="5.08906">
        <ele>459.5</ele>
        <time>2019-12-19T09:02:35.000Z</time>
      </trkpt>
      <trkpt lat="44.79712" lon="5.08899">
        <ele>461.09</ele>
        <time>2019-12-19T09:03:02.000Z</time>
      </trkpt>
      <trkpt lat="44.79717" lon="5.08888">
        <ele>462.57</ele>
        <time>2019-12-19T09:03:13.000Z</time>
      </trkpt>
      <trkpt lat="44.79725" lon="5.08877">
        <ele>464.25</ele>
        <time>2019-12-19T09:03:23.000Z</time>
      </trkpt>
      <trkpt lat="44.79731" lon="5.08866">
        <ele>465.65</ele>
        <time>2019-12-19T09:03:33.000Z</time>
      </trkpt>
      <trkpt lat="44.79736" lon="5.08855">
        <ele>466.93</ele>
        <time>2019-12-19T09:03:44.000Z</time>
      </trkpt>
      <trkpt lat="44.79741" lon="5.08844">
        <ele>468.21</ele>
        <time>2019-12-19T09:03:55.000Z</time>
      </trkpt>
      <trkpt lat="44.79745" lon="5.08832">
        <ele>469.48</ele>
        <time>2019-12-19T09:04:06.000Z</time>
      </trkpt>
      <trkpt lat="44.7975" lon="5.08819">
        <ele>470.37</ele>
        <time>2019-12-19T09:04:16.000Z</time>
      </trkpt>
      <trkpt lat="44.79756" lon="5.0881">
        <ele>471.02</ele>
        <time>2019-12-19T09:04:26.000Z</time>
      </trkpt>
      <trkpt lat="44.79765" lon="5.08803">
        <ele>471.89</ele>
        <time>2019-12-19T09:04:51.000Z</time>
      </trkpt>
      <trkpt lat="44.79773" lon="5.08796">
        <ele>472.61</ele>
        <time>2019-12-19T09:05:21.000Z</time>
      </trkpt>
      <trkpt lat="44.79782" lon="5.0879">
        <ele>473.47</ele>
        <time>2019-12-19T09:05:31.000Z</time>
      </trkpt>
      <trkpt lat="44.79793" lon="5.08786">
        <ele>474.58</ele>
        <time>2019-12-19T09:05:41.000Z</time>
      </trkpt>
      <trkpt lat="44.79803" lon="5.08784">
        <ele>475.86</ele>
        <time>2019-12-19T09:05:51.000Z</time>
      </trkpt>
      <trkpt lat="44.79812" lon="5.08784">
        <ele>477.39</ele>
        <time>2019-12-19T09:06:03.000Z</time>
      </trkpt>
      <trkpt lat="44.79822" lon="5.08783">
        <ele>479.6</ele>
        <time>2019-12-19T09:06:33.000Z</time>
      </trkpt>
      <trkpt lat="44.7983" lon="5.0879">
        <ele>481.42</ele>
        <time>2019-12-19T09:06:46.000Z</time>
      </trkpt>
      <trkpt lat="44.79838" lon="5.08797">
        <ele>483.46</ele>
        <time>2019-12-19T09:06:58.000Z</time>
      </trkpt>
      <trkpt lat="44.79847" lon="5.088">
        <ele>485.84</ele>
        <time>2019-12-19T09:07:08.000Z</time>
      </trkpt>
      <trkpt lat="44.79856" lon="5.088">
        <ele>488.79</ele>
        <time>2019-12-19T09:07:19.000Z</time>
      </trkpt>
      <trkpt lat="44.79865" lon="5.08803">
        <ele>491.2</ele>
        <time>2019-12-19T09:07:30.000Z</time>
      </trkpt>
      <trkpt lat="44.79874" lon="5.0881">
        <ele>492.1</ele>
        <time>2019-12-19T09:07:46.000Z</time>
      </trkpt>
      <trkpt lat="44.79884" lon="5.08815">
        <ele>493.77</ele>
        <time>2019-12-19T09:08:11.000Z</time>
      </trkpt>
      <trkpt lat="44.79892" lon="5.08819">
        <ele>495.03</ele>
        <time>2019-12-19T09:08:24.000Z</time>
      </trkpt>
      <trkpt lat="44.79901" lon="5.08823">
        <ele>497.09</ele>
        <time>2019-12-19T09:08:45.000Z</time>
      </trkpt>
      <trkpt lat="44.7991" lon="5.08827">
        <ele>499.51</ele>
        <time>2019-12-19T09:08:56.000Z</time>
      </trkpt>
      <trkpt lat="44.79919" lon="5.08834">
        <ele>502.1</ele>
        <time>2019-12-19T09:09:10.000Z</time>
      </trkpt>
      <trkpt lat="44.79926" lon="5.08844">
        <ele>504.33</ele>
        <time>2019-12-19T09:09:28.000Z</time>
      </trkpt>
      <trkpt lat="44.79934" lon="5.08853">
        <ele>508.07</ele>
        <time>2019-12-19T09:09:40.000Z</time>
      </trkpt>
      <trkpt lat="44.79942" lon="5.08863">
        <ele>512.72</ele>
        <time>2019-12-19T09:09:50.000Z</time>
      </trkpt>
      <trkpt lat="44.79945" lon="5.08875">
        <ele>512.29</ele>
        <time>2019-12-19T09:10:00.000Z</time>
      </trkpt>
      <trkpt lat="44.79945" lon="5.08889">
        <ele>510.68</ele>
        <time>2019-12-19T09:10:11.000Z</time>
      </trkpt>
      <trkpt lat="44.79943" lon="5.08902">
        <ele>508.68</ele>
        <time>2019-12-19T09:10:21.000Z</time>
      </trkpt>
      <trkpt lat="44.79939" lon="5.08916">
        <ele>507.54</ele>
        <time>2019-12-19T09:10:31.000Z</time>
      </trkpt>
      <trkpt lat="44.79937" lon="5.08932">
        <ele>507.76</ele>
        <time>2019-12-19T09:10:41.000Z</time>
      </trkpt>
      <trkpt lat="44.79932" lon="5.08944">
        <ele>507.66</ele>
        <time>2019-12-19T09:10:53.000Z</time>
      </trkpt>
      <trkpt lat="44.7993" lon="5.08957">
        <ele>508.82</ele>
        <time>2019-12-19T09:11:18.000Z</time>
      </trkpt>
      <trkpt lat="44.7993" lon="5.08971">
        <ele>511.41</ele>
        <time>2019-12-19T09:11:28.000Z</time>
      </trkpt>
      <trkpt lat="44.79928" lon="5.08985">
        <ele>514.36</ele>
        <time>2019-12-19T09:11:46.000Z</time>
      </trkpt>
      <trkpt lat="44.79922" lon="5.08998">
        <ele>516.21</ele>
        <time>2019-12-19T09:11:56.000Z</time>
      </trkpt>
      <trkpt lat="44.79915" lon="5.09006">
        <ele>516.99</ele>
        <time>2019-12-19T09:12:06.000Z</time>
      </trkpt>
      <trkpt lat="44.79924" lon="5.09009">
        <ele>522.37</ele>
        <time>2019-12-19T09:12:25.000Z</time>
      </trkpt>
      <trkpt lat="44.79933" lon="5.09005">
        <ele>524.51</ele>
        <time>2019-12-19T09:12:36.000Z</time>
      </trkpt>
      <trkpt lat="44.79942" lon="5.09005">
        <ele>528.66</ele>
        <time>2019-12-19T09:12:49.000Z</time>
      </trkpt>
      <trkpt lat="44.7995" lon="5.08997">
        <ele>529.02</ele>
        <time>2019-12-19T09:13:01.000Z</time>
      </trkpt>
      <trkpt lat="44.79959" lon="5.08992">
        <ele>531.32</ele>
        <time>2019-12-19T09:13:12.000Z</time>
      </trkpt>
      <trkpt lat="44.79968" lon="5.08988">
        <ele>534.6</ele>
        <time>2019-12-19T09:13:25.000Z</time>
      </trkpt>
      <trkpt lat="44.79976" lon="5.0898">
        <ele>535.31</ele>
        <time>2019-12-19T09:13:37.000Z</time>
      </trkpt>
      <trkpt lat="44.79983" lon="5.08974">
        <ele>536.63</ele>
        <time>2019-12-19T09:13:50.000Z</time>
      </trkpt>
      <trkpt lat="44.7999" lon="5.08964">
        <ele>536.09</ele>
        <time>2019-12-19T09:14:02.000Z</time>
      </trkpt>
      <trkpt lat="44.79998" lon="5.08955">
        <ele>536.77</ele>
        <time>2019-12-19T09:14:12.000Z</time>
      </trkpt>
      <trkpt lat="44.80007" lon="5.08958">
        <ele>542.01</ele>
        <time>2019-12-19T09:14:49.000Z</time>
      </trkpt>
      <trkpt lat="44.80013" lon="5.08949">
        <ele>542.11</ele>
        <time>2019-12-19T09:15:02.000Z</time>
      </trkpt>
      <trkpt lat="44.80021" lon="5.08955">
        <ele>547.99</ele>
        <time>2019-12-19T09:15:39.000Z</time>
      </trkpt>
      <trkpt lat="44.80031" lon="5.08951">
        <ele>551.58</ele>
        <time>2019-12-19T09:16:01.000Z</time>
      </trkpt>
      <trkpt lat="44.80034" lon="5.08939">
        <ele>550.54</ele>
        <time>2019-12-19T09:16:17.000Z</time>
      </trkpt>
      <trkpt lat="44.80032" lon="5.08926">
        <ele>547.71</ele>
        <time>2019-12-19T09:16:30.000Z</time>
      </trkpt>
      <trkpt lat="44.80029" lon="5.08914">
        <ele>546.04</ele>
        <time>2019-12-19T09:16:41.000Z</time>
      </trkpt>
      <trkpt lat="44.80023" lon="5.08903">
        <ele>545.16</ele>
        <time>2019-12-19T09:16:54.000Z</time>
      </trkpt>
      <trkpt lat="44.80017" lon="5.08894">
        <ele>545.43</ele>
        <time>2019-12-19T09:19:42.000Z</time>
      </trkpt>
      <trkpt lat="44.8001" lon="5.08884">
        <ele>547.07</ele>
        <time>2019-12-19T09:19:54.000Z</time>
      </trkpt>
      <trkpt lat="44.80005" lon="5.08873">
        <ele>550.29</ele>
        <time>2019-12-19T09:20:05.000Z</time>
      </trkpt>
      <trkpt lat="44.8" lon="5.08861">
        <ele>554.73</ele>
        <time>2019-12-19T09:20:17.000Z</time>
      </trkpt>
      <trkpt lat="44.79995" lon="5.0885">
        <ele>558.04</ele>
        <time>2019-12-19T09:20:30.000Z</time>
      </trkpt>
      <trkpt lat="44.79991" lon="5.08838">
        <ele>560.75</ele>
        <time>2019-12-19T09:20:42.000Z</time>
      </trkpt>
      <trkpt lat="44.79987" lon="5.08827">
        <ele>561.75</ele>
        <time>2019-12-19T09:20:53.000Z</time>
      </trkpt>
      <trkpt lat="44.79979" lon="5.08817">
        <ele>559.5</ele>
        <time>2019-12-19T09:21:03.000Z</time>
      </trkpt>
      <trkpt lat="44.79973" lon="5.08808">
        <ele>558.46</ele>
        <time>2019-12-19T09:21:30.000Z</time>
      </trkpt>
      <trkpt lat="44.79982" lon="5.08809">
        <ele>565.05</ele>
        <time>2019-12-19T09:21:43.000Z</time>
      </trkpt>
      <trkpt lat="44.79989" lon="5.08818">
        <ele>566.8</ele>
        <time>2019-12-19T09:21:56.000Z</time>
      </trkpt>
      <trkpt lat="44.79997" lon="5.08821">
        <ele>571.04</ele>
        <time>2019-12-19T09:22:06.000Z</time>
      </trkpt>
      <trkpt lat="44.80006" lon="5.08824">
        <ele>574.21</ele>
        <time>2019-12-19T09:22:16.000Z</time>
      </trkpt>
      <trkpt lat="44.80015" lon="5.08827">
        <ele>576.55</ele>
        <time>2019-12-19T09:22:26.000Z</time>
      </trkpt>
      <trkpt lat="44.80024" lon="5.08833">
        <ele>576.85</ele>
        <time>2019-12-19T09:22:37.000Z</time>
      </trkpt>
      <trkpt lat="44.80033" lon="5.08835">
        <ele>577.84</ele>
        <time>2019-12-19T09:24:24.000Z</time>
      </trkpt>
      <trkpt lat="44.80042" lon="5.08839">
        <ele>578.3</ele>
        <time>2019-12-19T09:25:32.000Z</time>
      </trkpt>
      <trkpt lat="44.80051" lon="5.08841">
        <ele>578.67</ele>
        <time>2019-12-19T09:25:42.000Z</time>
      </trkpt>
      <trkpt lat="44.8006" lon="5.08844">
        <ele>579.27</ele>
        <time>2019-12-19T09:25:52.000Z</time>
      </trkpt>
      <trkpt lat="44.80069" lon="5.08847">
        <ele>580.1</ele>
        <time>2019-12-19T09:26:02.000Z</time>
      </trkpt>
      <trkpt lat="44.80079" lon="5.08849">
        <ele>582.02</ele>
        <time>2019-12-19T09:26:12.000Z</time>
      </trkpt>
      <trkpt lat="44.80073" lon="5.08839">
        <ele>583.21</ele>
        <time>2019-12-19T09:27:02.000Z</time>
      </trkpt>
      <trkpt lat="44.80066" lon="5.08829">
        <ele>584.42</ele>
        <time>2019-12-19T09:27:12.000Z</time>
      </trkpt>
      <trkpt lat="44.80059" lon="5.0882">
        <ele>586.48</ele>
        <time>2019-12-19T09:27:22.000Z</time>
      </trkpt>
      <trkpt lat="44.80051" lon="5.08812">
        <ele>588.51</ele>
        <time>2019-12-19T09:27:32.000Z</time>
      </trkpt>
      <trkpt lat="44.80044" lon="5.08803">
        <ele>591.33</ele>
        <time>2019-12-19T09:27:43.000Z</time>
      </trkpt>
      <trkpt lat="44.80038" lon="5.08791">
        <ele>594.79</ele>
        <time>2019-12-19T09:27:53.000Z</time>
      </trkpt>
      <trkpt lat="44.80031" lon="5.08781">
        <ele>596.63</ele>
        <time>2019-12-19T09:28:03.000Z</time>
      </trkpt>
      <trkpt lat="44.80023" lon="5.08772">
        <ele>597</ele>
        <time>2019-12-19T09:28:13.000Z</time>
      </trkpt>
      <trkpt lat="44.80018" lon="5.0876">
        <ele>596.52</ele>
        <time>2019-12-19T09:28:23.000Z</time>
      </trkpt>
      <trkpt lat="44.80027" lon="5.08759">
        <ele>599.07</ele>
        <time>2019-12-19T09:28:36.000Z</time>
      </trkpt>
      <trkpt lat="44.80036" lon="5.08764">
        <ele>600.76</ele>
        <time>2019-12-19T09:28:47.000Z</time>
      </trkpt>
      <trkpt lat="44.80046" lon="5.08767">
        <ele>602.3</ele>
        <time>2019-12-19T09:28:57.000Z</time>
      </trkpt>
      <trkpt lat="44.80055" lon="5.08771">
        <ele>602.91</ele>
        <time>2019-12-19T09:29:07.000Z</time>
      </trkpt>
      <trkpt lat="44.80064" lon="5.08775">
        <ele>603.07</ele>
        <time>2019-12-19T09:29:18.000Z</time>
      </trkpt>
      <trkpt lat="44.80074" lon="5.08779">
        <ele>603.35</ele>
        <time>2019-12-19T09:29:28.000Z</time>
      </trkpt>
      <trkpt lat="44.80083" lon="5.0878">
        <ele>604.45</ele>
        <time>2019-12-19T09:29:53.000Z</time>
      </trkpt>
      <trkpt lat="44.80092" lon="5.08782">
        <ele>605.49</ele>
        <time>2019-12-19T09:30:04.000Z</time>
      </trkpt>
      <trkpt lat="44.80101" lon="5.08784">
        <ele>606.57</ele>
        <time>2019-12-19T09:30:15.000Z</time>
      </trkpt>
      <trkpt lat="44.80111" lon="5.08787">
        <ele>607.7</ele>
        <time>2019-12-19T09:30:25.000Z</time>
      </trkpt>
      <trkpt lat="44.80121" lon="5.08789">
        <ele>609.08</ele>
        <time>2019-12-19T09:30:35.000Z</time>
      </trkpt>
      <trkpt lat="44.80131" lon="5.08792">
        <ele>610.3</ele>
        <time>2019-12-19T09:30:48.000Z</time>
      </trkpt>
      <trkpt lat="44.8014" lon="5.08792">
        <ele>612.44</ele>
        <time>2019-12-19T09:30:58.000Z</time>
      </trkpt>
      <trkpt lat="44.80137" lon="5.08779">
        <ele>614.43</ele>
        <time>2019-12-19T09:31:20.000Z</time>
      </trkpt>
      <trkpt lat="44.80128" lon="5.08771">
        <ele>615</ele>
        <time>2019-12-19T09:31:30.000Z</time>
      </trkpt>
      <trkpt lat="44.8012" lon="5.08762">
        <ele>615.64</ele>
        <time>2019-12-19T09:31:40.000Z</time>
      </trkpt>
      <trkpt lat="44.80113" lon="5.08755">
        <ele>615.98</ele>
        <time>2019-12-19T09:31:50.000Z</time>
      </trkpt>
      <trkpt lat="44.80122" lon="5.08755">
        <ele>617.27</ele>
        <time>2019-12-19T09:32:03.000Z</time>
      </trkpt>
      <trkpt lat="44.80132" lon="5.08761">
        <ele>617.66</ele>
        <time>2019-12-19T09:32:13.000Z</time>
      </trkpt>
      <trkpt lat="44.80141" lon="5.08765">
        <ele>618.13</ele>
        <time>2019-12-19T09:32:23.000Z</time>
      </trkpt>
      <trkpt lat="44.80151" lon="5.08765">
        <ele>619.71</ele>
        <time>2019-12-19T09:32:33.000Z</time>
      </trkpt>
      <trkpt lat="44.80161" lon="5.08765">
        <ele>621.31</ele>
        <time>2019-12-19T09:32:44.000Z</time>
      </trkpt>
      <trkpt lat="44.80171" lon="5.08765">
        <ele>622.9</ele>
        <time>2019-12-19T09:32:55.000Z</time>
      </trkpt>
      <trkpt lat="44.8018" lon="5.08763">
        <ele>624.56</ele>
        <time>2019-12-19T09:33:07.000Z</time>
      </trkpt>
      <trkpt lat="44.80189" lon="5.08764">
        <ele>625.77</ele>
        <time>2019-12-19T09:33:17.000Z</time>
      </trkpt>
      <trkpt lat="44.80199" lon="5.08763">
        <ele>627.44</ele>
        <time>2019-12-19T09:33:29.000Z</time>
      </trkpt>
      <trkpt lat="44.80208" lon="5.08761">
        <ele>628.93</ele>
        <time>2019-12-19T09:33:39.000Z</time>
      </trkpt>
      <trkpt lat="44.80217" lon="5.08758">
        <ele>630.54</ele>
        <time>2019-12-19T09:33:50.000Z</time>
      </trkpt>
      <trkpt lat="44.80226" lon="5.08757">
        <ele>631.89</ele>
        <time>2019-12-19T09:34:01.000Z</time>
      </trkpt>
      <trkpt lat="44.80236" lon="5.08756">
        <ele>633.4</ele>
        <time>2019-12-19T09:34:15.000Z</time>
      </trkpt>
      <trkpt lat="44.80244" lon="5.08749">
        <ele>635.22</ele>
        <time>2019-12-19T09:34:28.000Z</time>
      </trkpt>
      <trkpt lat="44.80254" lon="5.08747">
        <ele>636.9</ele>
        <time>2019-12-19T09:34:39.000Z</time>
      </trkpt>
      <trkpt lat="44.80263" lon="5.08746">
        <ele>638.55</ele>
        <time>2019-12-19T09:34:49.000Z</time>
      </trkpt>
      <trkpt lat="44.80272" lon="5.08747">
        <ele>639.87</ele>
        <time>2019-12-19T09:35:00.000Z</time>
      </trkpt>
      <trkpt lat="44.80281" lon="5.08749">
        <ele>641.09</ele>
        <time>2019-12-19T09:35:11.000Z</time>
      </trkpt>
      <trkpt lat="44.8029" lon="5.08753">
        <ele>642.39</ele>
        <time>2019-12-19T09:35:22.000Z</time>
      </trkpt>
      <trkpt lat="44.80299" lon="5.08754">
        <ele>644.1</ele>
        <time>2019-12-19T09:35:33.000Z</time>
      </trkpt>
      <trkpt lat="44.80309" lon="5.08753">
        <ele>645.95</ele>
        <time>2019-12-19T09:35:45.000Z</time>
      </trkpt>
      <trkpt lat="44.80318" lon="5.08748">
        <ele>647.94</ele>
        <time>2019-12-19T09:35:57.000Z</time>
      </trkpt>
      <trkpt lat="44.80327" lon="5.08744">
        <ele>650.3</ele>
        <time>2019-12-19T09:36:10.000Z</time>
      </trkpt>
      <trkpt lat="44.80336" lon="5.08739">
        <ele>652.84</ele>
        <time>2019-12-19T09:36:22.000Z</time>
      </trkpt>
      <trkpt lat="44.80344" lon="5.08746">
        <ele>653.6</ele>
        <time>2019-12-19T09:36:36.000Z</time>
      </trkpt>
      <trkpt lat="44.80342" lon="5.08759">
        <ele>652.94</ele>
        <time>2019-12-19T09:36:51.000Z</time>
      </trkpt>
      <trkpt lat="44.80341" lon="5.08771">
        <ele>653.69</ele>
        <time>2019-12-19T09:37:10.000Z</time>
      </trkpt>
      <trkpt lat="44.8034" lon="5.08785">
        <ele>655.67</ele>
        <time>2019-12-19T09:37:23.000Z</time>
      </trkpt>
      <trkpt lat="44.80343" lon="5.08798">
        <ele>659.18</ele>
        <time>2019-12-19T09:39:08.000Z</time>
      </trkpt>
      <trkpt lat="44.80345" lon="5.08813">
        <ele>663.32</ele>
        <time>2019-12-19T09:39:24.000Z</time>
      </trkpt>
      <trkpt lat="44.80352" lon="5.08821">
        <ele>667.38</ele>
        <time>2019-12-19T09:39:37.000Z</time>
      </trkpt>
      <trkpt lat="44.80361" lon="5.08822">
        <ele>670.3</ele>
        <time>2019-12-19T09:39:53.000Z</time>
      </trkpt>
      <trkpt lat="44.80371" lon="5.0882">
        <ele>672.2</ele>
        <time>2019-12-19T09:40:05.000Z</time>
      </trkpt>
      <trkpt lat="44.8038" lon="5.08816">
        <ele>673.75</ele>
        <time>2019-12-19T09:40:17.000Z</time>
      </trkpt>
      <trkpt lat="44.8039" lon="5.08809">
        <ele>674.73</ele>
        <time>2019-12-19T09:40:27.000Z</time>
      </trkpt>
      <trkpt lat="44.80399" lon="5.08806">
        <ele>676.48</ele>
        <time>2019-12-19T09:40:53.000Z</time>
      </trkpt>
      <trkpt lat="44.80409" lon="5.08804">
        <ele>678.86</ele>
        <time>2019-12-19T09:41:09.000Z</time>
      </trkpt>
      <trkpt lat="44.80418" lon="5.08801">
        <ele>680.7</ele>
        <time>2019-12-19T09:41:25.000Z</time>
      </trkpt>
      <trkpt lat="44.80427" lon="5.08797">
        <ele>681.99</ele>
        <time>2019-12-19T09:41:35.000Z</time>
      </trkpt>
      <trkpt lat="44.80436" lon="5.08791">
        <ele>682.89</ele>
        <time>2019-12-19T09:41:48.000Z</time>
      </trkpt>
      <trkpt lat="44.80444" lon="5.08786">
        <ele>683.66</ele>
        <time>2019-12-19T09:42:00.000Z</time>
      </trkpt>
      <trkpt lat="44.80453" lon="5.08781">
        <ele>684.58</ele>
        <time>2019-12-19T09:42:16.000Z</time>
      </trkpt>
      <trkpt lat="44.80462" lon="5.08774">
        <ele>685.47</ele>
        <time>2019-12-19T09:42:28.000Z</time>
      </trkpt>
      <trkpt lat="44.80471" lon="5.08773">
        <ele>687.42</ele>
        <time>2019-12-19T09:42:40.000Z</time>
      </trkpt>
      <trkpt lat="44.80479" lon="5.08766">
        <ele>688.28</ele>
        <time>2019-12-19T09:42:51.000Z</time>
      </trkpt>
      <trkpt lat="44.80488" lon="5.0876">
        <ele>689.6</ele>
        <time>2019-12-19T09:43:02.000Z</time>
      </trkpt>
      <trkpt lat="44.80498" lon="5.08758">
        <ele>692.22</ele>
        <time>2019-12-19T09:43:13.000Z</time>
      </trkpt>
      <trkpt lat="44.80506" lon="5.08751">
        <ele>693.93</ele>
        <time>2019-12-19T09:43:28.000Z</time>
      </trkpt>
      <trkpt lat="44.80513" lon="5.08742">
        <ele>695.97</ele>
        <time>2019-12-19T09:43:40.000Z</time>
      </trkpt>
      <trkpt lat="44.80521" lon="5.08734">
        <ele>698.84</ele>
        <time>2019-12-19T09:43:55.000Z</time>
      </trkpt>
      <trkpt lat="44.8053" lon="5.08728">
        <ele>701.98</ele>
        <time>2019-12-19T09:44:08.000Z</time>
      </trkpt>
      <trkpt lat="44.80538" lon="5.08724">
        <ele>705</ele>
        <time>2019-12-19T09:44:22.000Z</time>
      </trkpt>
      <trkpt lat="44.80547" lon="5.08722">
        <ele>707.95</ele>
        <time>2019-12-19T09:44:37.000Z</time>
      </trkpt>
      <trkpt lat="44.80556" lon="5.08719">
        <ele>710.76</ele>
        <time>2019-12-19T09:44:51.000Z</time>
      </trkpt>
      <trkpt lat="44.80565" lon="5.08716">
        <ele>713.15</ele>
        <time>2019-12-19T09:45:03.000Z</time>
      </trkpt>
      <trkpt lat="44.80574" lon="5.08714">
        <ele>715.41</ele>
        <time>2019-12-19T09:45:17.000Z</time>
      </trkpt>
      <trkpt lat="44.80583" lon="5.08709">
        <ele>717.09</ele>
        <time>2019-12-19T09:45:31.000Z</time>
      </trkpt>
      <trkpt lat="44.80592" lon="5.08709">
        <ele>719.29</ele>
        <time>2019-12-19T09:45:42.000Z</time>
      </trkpt>
      <trkpt lat="44.80603" lon="5.08708">
        <ele>721.5</ele>
        <time>2019-12-19T09:46:00.000Z</time>
      </trkpt>
      <trkpt lat="44.80612" lon="5.08709">
        <ele>723.66</ele>
        <time>2019-12-19T09:46:15.000Z</time>
      </trkpt>
      <trkpt lat="44.80621" lon="5.08709">
        <ele>725.74</ele>
        <time>2019-12-19T09:46:30.000Z</time>
      </trkpt>
      <trkpt lat="44.8063" lon="5.0871">
        <ele>727.87</ele>
        <time>2019-12-19T09:46:44.000Z</time>
      </trkpt>
      <trkpt lat="44.80639" lon="5.08711">
        <ele>729.71</ele>
        <time>2019-12-19T09:46:59.000Z</time>
      </trkpt>
      <trkpt lat="44.80648" lon="5.08707">
        <ele>730.97</ele>
        <time>2019-12-19T09:47:14.000Z</time>
      </trkpt>
      <trkpt lat="44.80657" lon="5.08707">
        <ele>732.4</ele>
        <time>2019-12-19T09:47:30.000Z</time>
      </trkpt>
      <trkpt lat="44.80667" lon="5.08704">
        <ele>733.35</ele>
        <time>2019-12-19T09:47:44.000Z</time>
      </trkpt>
      <trkpt lat="44.80676" lon="5.08703">
        <ele>734.22</ele>
        <time>2019-12-19T09:47:56.000Z</time>
      </trkpt>
      <trkpt lat="44.80686" lon="5.08705">
        <ele>735.17</ele>
        <time>2019-12-19T09:48:13.000Z</time>
      </trkpt>
      <trkpt lat="44.80695" lon="5.08709">
        <ele>735.9</ele>
        <time>2019-12-19T09:48:24.000Z</time>
      </trkpt>
      <trkpt lat="44.80705" lon="5.08709">
        <ele>736.25</ele>
        <time>2019-12-19T09:48:50.000Z</time>
      </trkpt>
      <trkpt lat="44.80712" lon="5.08717">
        <ele>737.2</ele>
        <time>2019-12-19T09:49:09.000Z</time>
      </trkpt>
      <trkpt lat="44.80718" lon="5.08727">
        <ele>738.41</ele>
        <time>2019-12-19T09:49:24.000Z</time>
      </trkpt>
      <trkpt lat="44.80726" lon="5.08735">
        <ele>739.68</ele>
        <time>2019-12-19T09:49:38.000Z</time>
      </trkpt>
      <trkpt lat="44.80733" lon="5.08743">
        <ele>741.2</ele>
        <time>2019-12-19T09:49:49.000Z</time>
      </trkpt>
      <trkpt lat="44.80743" lon="5.08749">
        <ele>742.56</ele>
        <time>2019-12-19T09:50:02.000Z</time>
      </trkpt>
      <trkpt lat="44.80751" lon="5.08757">
        <ele>744.68</ele>
        <time>2019-12-19T09:50:15.000Z</time>
      </trkpt>
      <trkpt lat="44.8076" lon="5.08761">
        <ele>746.04</ele>
        <time>2019-12-19T09:50:25.000Z</time>
      </trkpt>
      <trkpt lat="44.80771" lon="5.08764">
        <ele>747.2</ele>
        <time>2019-12-19T09:50:35.000Z</time>
      </trkpt>
      <trkpt lat="44.80781" lon="5.08765">
        <ele>747.66</ele>
        <time>2019-12-19T09:50:45.000Z</time>
      </trkpt>
      <trkpt lat="44.8079" lon="5.08767">
        <ele>748.26</ele>
        <time>2019-12-19T09:50:55.000Z</time>
      </trkpt>
      <trkpt lat="44.80802" lon="5.08766">
        <ele>748.28</ele>
        <time>2019-12-19T09:51:05.000Z</time>
      </trkpt>
      <trkpt lat="44.80813" lon="5.08765">
        <ele>748.4</ele>
        <time>2019-12-19T09:51:15.000Z</time>
      </trkpt>
      <trkpt lat="44.80823" lon="5.08763">
        <ele>747.98</ele>
        <time>2019-12-19T09:51:25.000Z</time>
      </trkpt>
      <trkpt lat="44.80833" lon="5.08758">
        <ele>746.97</ele>
        <time>2019-12-19T09:51:35.000Z</time>
      </trkpt>
      <trkpt lat="44.80842" lon="5.08757">
        <ele>747.26</ele>
        <time>2019-12-19T09:51:45.000Z</time>
      </trkpt>
      <trkpt lat="44.80851" lon="5.08751">
        <ele>746.61</ele>
        <time>2019-12-19T09:51:55.000Z</time>
      </trkpt>
      <trkpt lat="44.8086" lon="5.08747">
        <ele>746.46</ele>
        <time>2019-12-19T09:52:07.000Z</time>
      </trkpt>
      <trkpt lat="44.80874" lon="5.08744">
        <ele>747.38</ele>
        <time>2019-12-19T09:52:17.000Z</time>
      </trkpt>
      <trkpt lat="44.80884" lon="5.08741">
        <ele>747.94</ele>
        <time>2019-12-19T09:52:27.000Z</time>
      </trkpt>
      <trkpt lat="44.80895" lon="5.08736">
        <ele>747.99</ele>
        <time>2019-12-19T09:52:37.000Z</time>
      </trkpt>
      <trkpt lat="44.80907" lon="5.0873">
        <ele>747.91</ele>
        <time>2019-12-19T09:52:47.000Z</time>
      </trkpt>
      <trkpt lat="44.80921" lon="5.08726">
        <ele>747.71</ele>
        <time>2019-12-19T09:52:57.000Z</time>
      </trkpt>
      <trkpt lat="44.80931" lon="5.08726">
        <ele>747.4</ele>
        <time>2019-12-19T09:53:07.000Z</time>
      </trkpt>
      <trkpt lat="44.80944" lon="5.0873">
        <ele>746.73</ele>
        <time>2019-12-19T09:53:17.000Z</time>
      </trkpt>
      <trkpt lat="44.80958" lon="5.08734">
        <ele>745.45</ele>
        <time>2019-12-19T09:53:27.000Z</time>
      </trkpt>
      <trkpt lat="44.8097" lon="5.08738">
        <ele>743.9</ele>
        <time>2019-12-19T09:53:37.000Z</time>
      </trkpt>
      <trkpt lat="44.80983" lon="5.08744">
        <ele>742.18</ele>
        <time>2019-12-19T09:53:47.000Z</time>
      </trkpt>
      <trkpt lat="44.80996" lon="5.08749">
        <ele>740.56</ele>
        <time>2019-12-19T09:53:57.000Z</time>
      </trkpt>
      <trkpt lat="44.8101" lon="5.08753">
        <ele>738.74</ele>
        <time>2019-12-19T09:54:07.000Z</time>
      </trkpt>
      <trkpt lat="44.81023" lon="5.08759">
        <ele>737.03</ele>
        <time>2019-12-19T09:54:17.000Z</time>
      </trkpt>
      <trkpt lat="44.81034" lon="5.08764">
        <ele>735.49</ele>
        <time>2019-12-19T09:54:27.000Z</time>
      </trkpt>
      <trkpt lat="44.81047" lon="5.08771">
        <ele>733.59</ele>
        <time>2019-12-19T09:54:37.000Z</time>
      </trkpt>
      <trkpt lat="44.81058" lon="5.08777">
        <ele>732.12</ele>
        <time>2019-12-19T09:54:47.000Z</time>
      </trkpt>
      <trkpt lat="44.81068" lon="5.08785">
        <ele>730.93</ele>
        <time>2019-12-19T09:54:57.000Z</time>
      </trkpt>
      <trkpt lat="44.81081" lon="5.08791">
        <ele>729.36</ele>
        <time>2019-12-19T09:55:07.000Z</time>
      </trkpt>
      <trkpt lat="44.81094" lon="5.08797">
        <ele>728.35</ele>
        <time>2019-12-19T09:55:17.000Z</time>
      </trkpt>
      <trkpt lat="44.81108" lon="5.08802">
        <ele>727.5</ele>
        <time>2019-12-19T09:55:27.000Z</time>
      </trkpt>
      <trkpt lat="44.8112" lon="5.08804">
        <ele>726.74</ele>
        <time>2019-12-19T09:55:37.000Z</time>
      </trkpt>
      <trkpt lat="44.81133" lon="5.08806">
        <ele>726.11</ele>
        <time>2019-12-19T09:55:47.000Z</time>
      </trkpt>
      <trkpt lat="44.81145" lon="5.08813">
        <ele>726.56</ele>
        <time>2019-12-19T09:55:57.000Z</time>
      </trkpt>
      <trkpt lat="44.81159" lon="5.08817">
        <ele>726.28</ele>
        <time>2019-12-19T09:56:07.000Z</time>
      </trkpt>
      <trkpt lat="44.81172" lon="5.08822">
        <ele>725.74</ele>
        <time>2019-12-19T09:56:17.000Z</time>
      </trkpt>
      <trkpt lat="44.81185" lon="5.08827">
        <ele>724.95</ele>
        <time>2019-12-19T09:56:27.000Z</time>
      </trkpt>
      <trkpt lat="44.81198" lon="5.08831">
        <ele>723.79</ele>
        <time>2019-12-19T09:56:37.000Z</time>
      </trkpt>
      <trkpt lat="44.81212" lon="5.08832">
        <ele>721.54</ele>
        <time>2019-12-19T09:56:47.000Z</time>
      </trkpt>
      <trkpt lat="44.81225" lon="5.08833">
        <ele>719.46</ele>
        <time>2019-12-19T09:56:57.000Z</time>
      </trkpt>
      <trkpt lat="44.81238" lon="5.08834">
        <ele>717.69</ele>
        <time>2019-12-19T09:57:07.000Z</time>
      </trkpt>
      <trkpt lat="44.8125" lon="5.08839">
        <ele>717.07</ele>
        <time>2019-12-19T09:57:17.000Z</time>
      </trkpt>
      <trkpt lat="44.81266" lon="5.08843">
        <ele>716.28</ele>
        <time>2019-12-19T09:57:27.000Z</time>
      </trkpt>
      <trkpt lat="44.81279" lon="5.0885">
        <ele>716.43</ele>
        <time>2019-12-19T09:57:37.000Z</time>
      </trkpt>
      <trkpt lat="44.81291" lon="5.08857">
        <ele>716.95</ele>
        <time>2019-12-19T09:57:47.000Z</time>
      </trkpt>
      <trkpt lat="44.81301" lon="5.08867">
        <ele>718.16</ele>
        <time>2019-12-19T09:57:57.000Z</time>
      </trkpt>
      <trkpt lat="44.81312" lon="5.08876">
        <ele>719.27</ele>
        <time>2019-12-19T09:58:07.000Z</time>
      </trkpt>
      <trkpt lat="44.81322" lon="5.08885">
        <ele>720.31</ele>
        <time>2019-12-19T09:58:17.000Z</time>
      </trkpt>
      <trkpt lat="44.81332" lon="5.08892">
        <ele>720.71</ele>
        <time>2019-12-19T09:58:27.000Z</time>
      </trkpt>
      <trkpt lat="44.81341" lon="5.08899">
        <ele>721.47</ele>
        <time>2019-12-19T09:58:59.000Z</time>
      </trkpt>
      <trkpt lat="44.81346" lon="5.0891">
        <ele>723.35</ele>
        <time>2019-12-19T10:01:08.000Z</time>
      </trkpt>
      <trkpt lat="44.8135" lon="5.08923">
        <ele>726.18</ele>
        <time>2019-12-19T10:01:26.000Z</time>
      </trkpt>
      <trkpt lat="44.81357" lon="5.08932">
        <ele>727.47</ele>
        <time>2019-12-19T10:01:42.000Z</time>
      </trkpt>
      <trkpt lat="44.81364" lon="5.0894">
        <ele>728.57</ele>
        <time>2019-12-19T10:01:52.000Z</time>
      </trkpt>
      <trkpt lat="44.81372" lon="5.08947">
        <ele>729.23</ele>
        <time>2019-12-19T10:02:06.000Z</time>
      </trkpt>
      <trkpt lat="44.81379" lon="5.08956">
        <ele>730.84</ele>
        <time>2019-12-19T10:02:19.000Z</time>
      </trkpt>
      <trkpt lat="44.81388" lon="5.08962">
        <ele>730.81</ele>
        <time>2019-12-19T10:02:30.000Z</time>
      </trkpt>
      <trkpt lat="44.81396" lon="5.08968">
        <ele>731.26</ele>
        <time>2019-12-19T10:02:41.000Z</time>
      </trkpt>
      <trkpt lat="44.81408" lon="5.08972">
        <ele>730.74</ele>
        <time>2019-12-19T10:02:51.000Z</time>
      </trkpt>
      <trkpt lat="44.81421" lon="5.08976">
        <ele>730.68</ele>
        <time>2019-12-19T10:03:01.000Z</time>
      </trkpt>
      <trkpt lat="44.81433" lon="5.08979">
        <ele>731.13</ele>
        <time>2019-12-19T10:03:11.000Z</time>
      </trkpt>
      <trkpt lat="44.81443" lon="5.0898">
        <ele>731.55</ele>
        <time>2019-12-19T10:03:24.000Z</time>
      </trkpt>
      <trkpt lat="44.81452" lon="5.08985">
        <ele>733.24</ele>
        <time>2019-12-19T10:03:34.000Z</time>
      </trkpt>
      <trkpt lat="44.8146" lon="5.0899">
        <ele>735.03</ele>
        <time>2019-12-19T10:03:44.000Z</time>
      </trkpt>
      <trkpt lat="44.81469" lon="5.08994">
        <ele>736.36</ele>
        <time>2019-12-19T10:03:54.000Z</time>
      </trkpt>
      <trkpt lat="44.81479" lon="5.08998">
        <ele>737.72</ele>
        <time>2019-12-19T10:04:04.000Z</time>
      </trkpt>
      <trkpt lat="44.81488" lon="5.09005">
        <ele>739.59</ele>
        <time>2019-12-19T10:04:14.000Z</time>
      </trkpt>
      <trkpt lat="44.81497" lon="5.0901">
        <ele>740.64</ele>
        <time>2019-12-19T10:04:24.000Z</time>
      </trkpt>
      <trkpt lat="44.81508" lon="5.09015">
        <ele>741.01</ele>
        <time>2019-12-19T10:04:34.000Z</time>
      </trkpt>
      <trkpt lat="44.81518" lon="5.09016">
        <ele>740.06</ele>
        <time>2019-12-19T10:04:45.000Z</time>
      </trkpt>
      <trkpt lat="44.81527" lon="5.0902">
        <ele>739.68</ele>
        <time>2019-12-19T10:04:56.000Z</time>
      </trkpt>
      <trkpt lat="44.81538" lon="5.09022">
        <ele>738.19</ele>
        <time>2019-12-19T10:05:06.000Z</time>
      </trkpt>
      <trkpt lat="44.81549" lon="5.09027">
        <ele>737.49</ele>
        <time>2019-12-19T10:05:16.000Z</time>
      </trkpt>
      <trkpt lat="44.81558" lon="5.09031">
        <ele>736.84</ele>
        <time>2019-12-19T10:05:31.000Z</time>
      </trkpt>
      <trkpt lat="44.81567" lon="5.09031">
        <ele>735.4</ele>
        <time>2019-12-19T10:05:42.000Z</time>
      </trkpt>
      <trkpt lat="44.81577" lon="5.09035">
        <ele>735.06</ele>
        <time>2019-12-19T10:05:52.000Z</time>
      </trkpt>
      <trkpt lat="44.81585" lon="5.09041">
        <ele>735.58</ele>
        <time>2019-12-19T10:06:03.000Z</time>
      </trkpt>
      <trkpt lat="44.81576" lon="5.09048">
        <ele>738.09</ele>
        <time>2019-12-19T10:07:39.000Z</time>
      </trkpt>
      <trkpt lat="44.81567" lon="5.09053">
        <ele>740.39</ele>
        <time>2019-12-19T10:07:54.000Z</time>
      </trkpt>
      <trkpt lat="44.81558" lon="5.09059">
        <ele>743.07</ele>
        <time>2019-12-19T10:08:12.000Z</time>
      </trkpt>
      <trkpt lat="44.81549" lon="5.09061">
        <ele>745.3</ele>
        <time>2019-12-19T10:08:25.000Z</time>
      </trkpt>
      <trkpt lat="44.8154" lon="5.09066">
        <ele>748.17</ele>
        <time>2019-12-19T10:08:38.000Z</time>
      </trkpt>
      <trkpt lat="44.81531" lon="5.09072">
        <ele>751.2</ele>
        <time>2019-12-19T10:09:05.000Z</time>
      </trkpt>
      <trkpt lat="44.81522" lon="5.09077">
        <ele>754.14</ele>
        <time>2019-12-19T10:09:26.000Z</time>
      </trkpt>
      <trkpt lat="44.81513" lon="5.09084">
        <ele>757.58</ele>
        <time>2019-12-19T10:09:38.000Z</time>
      </trkpt>
      <trkpt lat="44.81505" lon="5.09089">
        <ele>760.19</ele>
        <time>2019-12-19T10:09:53.000Z</time>
      </trkpt>
      <trkpt lat="44.81496" lon="5.09094">
        <ele>762.67</ele>
        <time>2019-12-19T10:10:07.000Z</time>
      </trkpt>
      <trkpt lat="44.81489" lon="5.09102">
        <ele>765.65</ele>
        <time>2019-12-19T10:10:22.000Z</time>
      </trkpt>
      <trkpt lat="44.81482" lon="5.09111">
        <ele>769.09</ele>
        <time>2019-12-19T10:10:42.000Z</time>
      </trkpt>
      <trkpt lat="44.81481" lon="5.09124">
        <ele>773.29</ele>
        <time>2019-12-19T10:11:10.000Z</time>
      </trkpt>
      <trkpt lat="44.81481" lon="5.09137">
        <ele>777.84</ele>
        <time>2019-12-19T10:11:45.000Z</time>
      </trkpt>
      <trkpt lat="44.81473" lon="5.09145">
        <ele>781.71</ele>
        <time>2019-12-19T10:12:00.000Z</time>
      </trkpt>
      <trkpt lat="44.81464" lon="5.0915">
        <ele>784.59</ele>
        <time>2019-12-19T10:12:15.000Z</time>
      </trkpt>
      <trkpt lat="44.81455" lon="5.09152">
        <ele>786.74</ele>
        <time>2019-12-19T10:12:32.000Z</time>
      </trkpt>
      <trkpt lat="44.81445" lon="5.09153">
        <ele>788.49</ele>
        <time>2019-12-19T10:12:53.000Z</time>
      </trkpt>
      <trkpt lat="44.81436" lon="5.09158">
        <ele>792.3</ele>
        <time>2019-12-19T10:13:10.000Z</time>
      </trkpt>
      <trkpt lat="44.81427" lon="5.09159">
        <ele>794.54</ele>
        <time>2019-12-19T10:13:24.000Z</time>
      </trkpt>
      <trkpt lat="44.81418" lon="5.09156">
        <ele>794.85</ele>
        <time>2019-12-19T10:13:39.000Z</time>
      </trkpt>
      <trkpt lat="44.81409" lon="5.0916">
        <ele>798.46</ele>
        <time>2019-12-19T10:14:00.000Z</time>
      </trkpt>
      <trkpt lat="44.814" lon="5.09162">
        <ele>801.41</ele>
        <time>2019-12-19T10:14:19.000Z</time>
      </trkpt>
      <trkpt lat="44.81391" lon="5.09166">
        <ele>805.15</ele>
        <time>2019-12-19T10:14:38.000Z</time>
      </trkpt>
      <trkpt lat="44.81382" lon="5.09168">
        <ele>808.03</ele>
        <time>2019-12-19T10:15:03.000Z</time>
      </trkpt>
      <trkpt lat="44.81377" lon="5.09178">
        <ele>814.02</ele>
        <time>2019-12-19T10:15:33.000Z</time>
      </trkpt>
      <trkpt lat="44.81367" lon="5.09179">
        <ele>817.02</ele>
        <time>2019-12-19T10:15:53.000Z</time>
      </trkpt>
      <trkpt lat="44.81358" lon="5.09176">
        <ele>818.14</ele>
        <time>2019-12-19T10:16:15.000Z</time>
      </trkpt>
      <trkpt lat="44.81348" lon="5.09169">
        <ele>818.3</ele>
        <time>2019-12-19T10:16:50.000Z</time>
      </trkpt>
      <trkpt lat="44.8134" lon="5.09162">
        <ele>818.22</ele>
        <time>2019-12-19T10:17:04.000Z</time>
      </trkpt>
      <trkpt lat="44.81331" lon="5.09167">
        <ele>823.91</ele>
        <time>2019-12-19T10:18:53.000Z</time>
      </trkpt>
      <trkpt lat="44.81331" lon="5.0918">
        <ele>830.05</ele>
        <time>2019-12-19T10:19:10.000Z</time>
      </trkpt>
      <trkpt lat="44.81325" lon="5.0919">
        <ele>837.05</ele>
        <time>2019-12-19T10:19:37.000Z</time>
      </trkpt>
      <trkpt lat="44.81329" lon="5.09202">
        <ele>840.25</ele>
        <time>2019-12-19T10:20:06.000Z</time>
      </trkpt>
      <trkpt lat="44.81333" lon="5.09214">
        <ele>843.52</ele>
        <time>2019-12-19T10:21:32.000Z</time>
      </trkpt>
      <trkpt lat="44.81339" lon="5.09225">
        <ele>846.1</ele>
        <time>2019-12-19T10:21:51.000Z</time>
      </trkpt>
      <trkpt lat="44.81346" lon="5.09233">
        <ele>847.37</ele>
        <time>2019-12-19T10:22:04.000Z</time>
      </trkpt>
      <trkpt lat="44.81354" lon="5.09239">
        <ele>847.6</ele>
        <time>2019-12-19T10:23:30.000Z</time>
      </trkpt>
      <trkpt lat="44.8136" lon="5.09249">
        <ele>849.66</ele>
        <time>2019-12-19T10:23:42.000Z</time>
      </trkpt>
      <trkpt lat="44.81368" lon="5.09255">
        <ele>850.28</ele>
        <time>2019-12-19T10:23:58.000Z</time>
      </trkpt>
      <trkpt lat="44.81375" lon="5.09264">
        <ele>852.58</ele>
        <time>2019-12-19T10:24:11.000Z</time>
      </trkpt>
      <trkpt lat="44.81367" lon="5.09269">
        <ele>855.93</ele>
        <time>2019-12-19T10:24:58.000Z</time>
      </trkpt>
      <trkpt lat="44.8136" lon="5.0926">
        <ele>853.76</ele>
        <time>2019-12-19T10:25:22.000Z</time>
      </trkpt>
      <trkpt lat="44.81354" lon="5.0927">
        <ele>858.19</ele>
        <time>2019-12-19T10:26:06.000Z</time>
      </trkpt>
      <trkpt lat="44.81351" lon="5.09282">
        <ele>862.23</ele>
        <time>2019-12-19T10:26:18.000Z</time>
      </trkpt>
      <trkpt lat="44.81348" lon="5.09295">
        <ele>865.7</ele>
        <time>2019-12-19T10:26:30.000Z</time>
      </trkpt>
      <trkpt lat="44.81349" lon="5.09308">
        <ele>868.6</ele>
        <time>2019-12-19T10:26:43.000Z</time>
      </trkpt>
      <trkpt lat="44.81342" lon="5.09319">
        <ele>870.37</ele>
        <time>2019-12-19T10:32:02.000Z</time>
      </trkpt>
      <trkpt lat="44.81332" lon="5.09322">
        <ele>870.55</ele>
        <time>2019-12-19T10:32:12.000Z</time>
      </trkpt>
      <trkpt lat="44.81323" lon="5.09326">
        <ele>870.8</ele>
        <time>2019-12-19T10:32:24.000Z</time>
      </trkpt>
      <trkpt lat="44.81312" lon="5.09325">
        <ele>870.63</ele>
        <time>2019-12-19T10:32:34.000Z</time>
      </trkpt>
      <trkpt lat="44.81302" lon="5.09328">
        <ele>870.75</ele>
        <time>2019-12-19T10:32:44.000Z</time>
      </trkpt>
      <trkpt lat="44.81293" lon="5.09333">
        <ele>870.88</ele>
        <time>2019-12-19T10:32:54.000Z</time>
      </trkpt>
      <trkpt lat="44.81283" lon="5.09336">
        <ele>870.86</ele>
        <time>2019-12-19T10:34:51.000Z</time>
      </trkpt>
      <trkpt lat="44.81273" lon="5.09339">
        <ele>870.8</ele>
        <time>2019-12-19T10:35:01.000Z</time>
      </trkpt>
      <trkpt lat="44.81263" lon="5.09346">
        <ele>870.61</ele>
        <time>2019-12-19T10:35:11.000Z</time>
      </trkpt>
      <trkpt lat="44.81252" lon="5.09359">
        <ele>870.12</ele>
        <time>2019-12-19T10:35:21.000Z</time>
      </trkpt>
      <trkpt lat="44.81241" lon="5.09369">
        <ele>869.59</ele>
        <time>2019-12-19T10:35:31.000Z</time>
      </trkpt>
      <trkpt lat="44.81232" lon="5.0938">
        <ele>869.03</ele>
        <time>2019-12-19T10:35:41.000Z</time>
      </trkpt>
      <trkpt lat="44.81223" lon="5.0939">
        <ele>868.46</ele>
        <time>2019-12-19T10:35:51.000Z</time>
      </trkpt>
      <trkpt lat="44.81213" lon="5.09404">
        <ele>867.46</ele>
        <time>2019-12-19T10:36:01.000Z</time>
      </trkpt>
      <trkpt lat="44.81207" lon="5.09412">
        <ele>866.67</ele>
        <time>2019-12-19T10:36:43.000Z</time>
      </trkpt>
      <trkpt lat="44.812" lon="5.09422">
        <ele>865.7</ele>
        <time>2019-12-19T10:36:53.000Z</time>
      </trkpt>
      <trkpt lat="44.81193" lon="5.09433">
        <ele>864.48</ele>
        <time>2019-12-19T10:37:03.000Z</time>
      </trkpt>
      <trkpt lat="44.81184" lon="5.0944">
        <ele>863.49</ele>
        <time>2019-12-19T10:37:13.000Z</time>
      </trkpt>
      <trkpt lat="44.81172" lon="5.09442">
        <ele>862.76</ele>
        <time>2019-12-19T10:37:23.000Z</time>
      </trkpt>
      <trkpt lat="44.81163" lon="5.09444">
        <ele>862.01</ele>
        <time>2019-12-19T10:37:33.000Z</time>
      </trkpt>
      <trkpt lat="44.81152" lon="5.09448">
        <ele>861.18</ele>
        <time>2019-12-19T10:37:43.000Z</time>
      </trkpt>
      <trkpt lat="44.81142" lon="5.0945">
        <ele>860.64</ele>
        <time>2019-12-19T10:37:53.000Z</time>
      </trkpt>
      <trkpt lat="44.81133" lon="5.09455">
        <ele>859.88</ele>
        <time>2019-12-19T10:38:45.000Z</time>
      </trkpt>
      <trkpt lat="44.81122" lon="5.0945">
        <ele>859.91</ele>
        <time>2019-12-19T10:38:55.000Z</time>
      </trkpt>
      <trkpt lat="44.81111" lon="5.09445">
        <ele>859.88</ele>
        <time>2019-12-19T10:39:05.000Z</time>
      </trkpt>
      <trkpt lat="44.81102" lon="5.09448">
        <ele>858.92</ele>
        <time>2019-12-19T10:39:15.000Z</time>
      </trkpt>
      <trkpt lat="44.81091" lon="5.09446">
        <ele>858.06</ele>
        <time>2019-12-19T10:39:25.000Z</time>
      </trkpt>
      <trkpt lat="44.8108" lon="5.09446">
        <ele>856.58</ele>
        <time>2019-12-19T10:39:35.000Z</time>
      </trkpt>
      <trkpt lat="44.81074" lon="5.09454">
        <ele>854.64</ele>
        <time>2019-12-19T10:39:51.000Z</time>
      </trkpt>
      <trkpt lat="44.81072" lon="5.09467">
        <ele>853.07</ele>
        <time>2019-12-19T10:41:29.000Z</time>
      </trkpt>
      <trkpt lat="44.81068" lon="5.09479">
        <ele>851.2</ele>
        <time>2019-12-19T10:41:39.000Z</time>
      </trkpt>
      <trkpt lat="44.81061" lon="5.09491">
        <ele>848.49</ele>
        <time>2019-12-19T10:41:49.000Z</time>
      </trkpt>
      <trkpt lat="44.81053" lon="5.09499">
        <ele>845.73</ele>
        <time>2019-12-19T10:41:59.000Z</time>
      </trkpt>
      <trkpt lat="44.81044" lon="5.09504">
        <ele>843.08</ele>
        <time>2019-12-19T10:42:09.000Z</time>
      </trkpt>
      <trkpt lat="44.81035" lon="5.09507">
        <ele>840.67</ele>
        <time>2019-12-19T10:42:23.000Z</time>
      </trkpt>
      <trkpt lat="44.81033" lon="5.09522">
        <ele>838.29</ele>
        <time>2019-12-19T10:42:33.000Z</time>
      </trkpt>
      <trkpt lat="44.81038" lon="5.09538">
        <ele>836.65</ele>
        <time>2019-12-19T10:42:43.000Z</time>
      </trkpt>
      <trkpt lat="44.81043" lon="5.0955">
        <ele>835.64</ele>
        <time>2019-12-19T10:42:53.000Z</time>
      </trkpt>
      <trkpt lat="44.81051" lon="5.09561">
        <ele>834.98</ele>
        <time>2019-12-19T10:43:03.000Z</time>
      </trkpt>
      <trkpt lat="44.81062" lon="5.09566">
        <ele>835.65</ele>
        <time>2019-12-19T10:43:13.000Z</time>
      </trkpt>
      <trkpt lat="44.81073" lon="5.09575">
        <ele>835.91</ele>
        <time>2019-12-19T10:43:23.000Z</time>
      </trkpt>
      <trkpt lat="44.81087" lon="5.09577">
        <ele>837.9</ele>
        <time>2019-12-19T10:43:33.000Z</time>
      </trkpt>
      <trkpt lat="44.81094" lon="5.09586">
        <ele>837.69</ele>
        <time>2019-12-19T10:43:45.000Z</time>
      </trkpt>
      <trkpt lat="44.81101" lon="5.096">
        <ele>836.21</ele>
        <time>2019-12-19T10:43:55.000Z</time>
      </trkpt>
      <trkpt lat="44.81109" lon="5.0961">
        <ele>836.06</ele>
        <time>2019-12-19T10:44:05.000Z</time>
      </trkpt>
      <trkpt lat="44.81117" lon="5.0962">
        <ele>835.74</ele>
        <time>2019-12-19T10:44:15.000Z</time>
      </trkpt>
      <trkpt lat="44.81125" lon="5.0963">
        <ele>835.58</ele>
        <time>2019-12-19T10:44:25.000Z</time>
      </trkpt>
      <trkpt lat="44.81134" lon="5.0964">
        <ele>835.83</ele>
        <time>2019-12-19T10:44:35.000Z</time>
      </trkpt>
      <trkpt lat="44.81143" lon="5.09648">
        <ele>836.64</ele>
        <time>2019-12-19T10:44:45.000Z</time>
      </trkpt>
      <trkpt lat="44.81152" lon="5.09657">
        <ele>837.37</ele>
        <time>2019-12-19T10:44:55.000Z</time>
      </trkpt>
      <trkpt lat="44.81161" lon="5.09665">
        <ele>838.63</ele>
        <time>2019-12-19T10:45:05.000Z</time>
      </trkpt>
      <trkpt lat="44.81165" lon="5.09681">
        <ele>838.78</ele>
        <time>2019-12-19T10:45:15.000Z</time>
      </trkpt>
      <trkpt lat="44.81168" lon="5.09696">
        <ele>839.37</ele>
        <time>2019-12-19T10:45:25.000Z</time>
      </trkpt>
      <trkpt lat="44.8117" lon="5.0971">
        <ele>840.16</ele>
        <time>2019-12-19T10:45:35.000Z</time>
      </trkpt>
      <trkpt lat="44.81173" lon="5.09723">
        <ele>840.81</ele>
        <time>2019-12-19T10:45:45.000Z</time>
      </trkpt>
      <trkpt lat="44.8118" lon="5.09736">
        <ele>842.17</ele>
        <time>2019-12-19T10:45:55.000Z</time>
      </trkpt>
      <trkpt lat="44.81187" lon="5.0975">
        <ele>842.39</ele>
        <time>2019-12-19T10:46:05.000Z</time>
      </trkpt>
      <trkpt lat="44.81195" lon="5.09758">
        <ele>842.98</ele>
        <time>2019-12-19T10:46:15.000Z</time>
      </trkpt>
      <trkpt lat="44.81198" lon="5.09775">
        <ele>840.82</ele>
        <time>2019-12-19T10:46:25.000Z</time>
      </trkpt>
      <trkpt lat="44.81202" lon="5.0979">
        <ele>838.8</ele>
        <time>2019-12-19T10:46:35.000Z</time>
      </trkpt>
      <trkpt lat="44.81207" lon="5.09805">
        <ele>837.28</ele>
        <time>2019-12-19T10:46:45.000Z</time>
      </trkpt>
      <trkpt lat="44.81214" lon="5.09815">
        <ele>836.86</ele>
        <time>2019-12-19T10:46:55.000Z</time>
      </trkpt>
      <trkpt lat="44.8122" lon="5.09829">
        <ele>835.69</ele>
        <time>2019-12-19T10:47:05.000Z</time>
      </trkpt>
      <trkpt lat="44.81226" lon="5.0984">
        <ele>834.58</ele>
        <time>2019-12-19T10:47:15.000Z</time>
      </trkpt>
      <trkpt lat="44.81232" lon="5.09852">
        <ele>832.9</ele>
        <time>2019-12-19T10:47:25.000Z</time>
      </trkpt>
      <trkpt lat="44.81239" lon="5.09866">
        <ele>830.55</ele>
        <time>2019-12-19T10:47:35.000Z</time>
      </trkpt>
      <trkpt lat="44.81246" lon="5.09877">
        <ele>828.26</ele>
        <time>2019-12-19T10:47:45.000Z</time>
      </trkpt>
      <trkpt lat="44.81251" lon="5.0989">
        <ele>824.66</ele>
        <time>2019-12-19T10:47:55.000Z</time>
      </trkpt>
      <trkpt lat="44.81253" lon="5.09903">
        <ele>820.37</ele>
        <time>2019-12-19T10:48:05.000Z</time>
      </trkpt>
      <trkpt lat="44.81257" lon="5.09916">
        <ele>816.98</ele>
        <time>2019-12-19T10:48:15.000Z</time>
      </trkpt>
      <trkpt lat="44.81265" lon="5.09926">
        <ele>815.88</ele>
        <time>2019-12-19T10:48:25.000Z</time>
      </trkpt>
      <trkpt lat="44.81274" lon="5.09934">
        <ele>815.9</ele>
        <time>2019-12-19T10:48:35.000Z</time>
      </trkpt>
      <trkpt lat="44.81281" lon="5.09945">
        <ele>814.03</ele>
        <time>2019-12-19T10:48:45.000Z</time>
      </trkpt>
      <trkpt lat="44.81286" lon="5.09956">
        <ele>811.63</ele>
        <time>2019-12-19T10:48:55.000Z</time>
      </trkpt>
      <trkpt lat="44.81293" lon="5.09967">
        <ele>810.54</ele>
        <time>2019-12-19T10:49:05.000Z</time>
      </trkpt>
      <trkpt lat="44.81298" lon="5.09978">
        <ele>809.08</ele>
        <time>2019-12-19T10:49:15.000Z</time>
      </trkpt>
      <trkpt lat="44.81304" lon="5.09989">
        <ele>808.05</ele>
        <time>2019-12-19T10:49:31.000Z</time>
      </trkpt>
      <trkpt lat="44.81309" lon="5.10001">
        <ele>806.62</ele>
        <time>2019-12-19T10:49:41.000Z</time>
      </trkpt>
      <trkpt lat="44.81314" lon="5.10013">
        <ele>805.08</ele>
        <time>2019-12-19T10:49:51.000Z</time>
      </trkpt>
      <trkpt lat="44.81318" lon="5.10027">
        <ele>802.38</ele>
        <time>2019-12-19T10:50:01.000Z</time>
      </trkpt>
      <trkpt lat="44.81322" lon="5.10042">
        <ele>799.38</ele>
        <time>2019-12-19T10:50:11.000Z</time>
      </trkpt>
      <trkpt lat="44.81325" lon="5.10055">
        <ele>796.76</ele>
        <time>2019-12-19T10:50:21.000Z</time>
      </trkpt>
      <trkpt lat="44.81329" lon="5.10068">
        <ele>795.33</ele>
        <time>2019-12-19T10:50:31.000Z</time>
      </trkpt>
      <trkpt lat="44.81334" lon="5.10084">
        <ele>794.17</ele>
        <time>2019-12-19T10:50:41.000Z</time>
      </trkpt>
      <trkpt lat="44.81338" lon="5.10098">
        <ele>794.17</ele>
        <time>2019-12-19T10:50:51.000Z</time>
      </trkpt>
      <trkpt lat="44.81346" lon="5.10111">
        <ele>796.02</ele>
        <time>2019-12-19T10:51:01.000Z</time>
      </trkpt>
      <trkpt lat="44.81354" lon="5.10121">
        <ele>797.86</ele>
        <time>2019-12-19T10:51:11.000Z</time>
      </trkpt>
      <trkpt lat="44.81364" lon="5.10131">
        <ele>799.84</ele>
        <time>2019-12-19T10:51:21.000Z</time>
      </trkpt>
      <trkpt lat="44.81372" lon="5.10139">
        <ele>800.73</ele>
        <time>2019-12-19T10:51:31.000Z</time>
      </trkpt>
      <trkpt lat="44.8138" lon="5.10149">
        <ele>800.7</ele>
        <time>2019-12-19T10:51:41.000Z</time>
      </trkpt>
      <trkpt lat="44.81387" lon="5.1016">
        <ele>799.65</ele>
        <time>2019-12-19T10:52:58.000Z</time>
      </trkpt>
      <trkpt lat="44.81396" lon="5.10168">
        <ele>798.33</ele>
        <time>2019-12-19T10:53:08.000Z</time>
      </trkpt>
      <trkpt lat="44.81404" lon="5.10177">
        <ele>796.52</ele>
        <time>2019-12-19T10:53:18.000Z</time>
      </trkpt>
      <trkpt lat="44.81412" lon="5.10187">
        <ele>794.18</ele>
        <time>2019-12-19T10:53:28.000Z</time>
      </trkpt>
      <trkpt lat="44.81419" lon="5.10198">
        <ele>791.68</ele>
        <time>2019-12-19T10:53:38.000Z</time>
      </trkpt>
      <trkpt lat="44.81423" lon="5.1021">
        <ele>789.19</ele>
        <time>2019-12-19T10:53:49.000Z</time>
      </trkpt>
      <trkpt lat="44.81424" lon="5.10222">
        <ele>787.01</ele>
        <time>2019-12-19T10:54:04.000Z</time>
      </trkpt>
      <trkpt lat="44.81422" lon="5.10238">
        <ele>784.86</ele>
        <time>2019-12-19T10:54:14.000Z</time>
      </trkpt>
      <trkpt lat="44.81422" lon="5.10251">
        <ele>782.8</ele>
        <time>2019-12-19T10:54:36.000Z</time>
      </trkpt>
      <trkpt lat="44.81424" lon="5.10267">
        <ele>780.16</ele>
        <time>2019-12-19T10:54:46.000Z</time>
      </trkpt>
      <trkpt lat="44.81421" lon="5.10282">
        <ele>778.56</ele>
        <time>2019-12-19T10:54:56.000Z</time>
      </trkpt>
      <trkpt lat="44.81419" lon="5.10295">
        <ele>777.18</ele>
        <time>2019-12-19T10:55:40.000Z</time>
      </trkpt>
      <trkpt lat="44.81416" lon="5.10307">
        <ele>775.7</ele>
        <time>2019-12-19T10:56:01.000Z</time>
      </trkpt>
      <trkpt lat="44.81416" lon="5.10321">
        <ele>773.83</ele>
        <time>2019-12-19T10:56:43.000Z</time>
      </trkpt>
      <trkpt lat="44.81413" lon="5.10333">
        <ele>772.32</ele>
        <time>2019-12-19T10:56:54.000Z</time>
      </trkpt>
      <trkpt lat="44.81408" lon="5.10346">
        <ele>770.58</ele>
        <time>2019-12-19T10:57:04.000Z</time>
      </trkpt>
      <trkpt lat="44.81407" lon="5.1036">
        <ele>768.23</ele>
        <time>2019-12-19T10:57:24.000Z</time>
      </trkpt>
      <trkpt lat="44.81413" lon="5.10372">
        <ele>765.7</ele>
        <time>2019-12-19T10:57:34.000Z</time>
      </trkpt>
      <trkpt lat="44.81422" lon="5.10387">
        <ele>763.59</ele>
        <time>2019-12-19T10:57:44.000Z</time>
      </trkpt>
      <trkpt lat="44.81434" lon="5.10392">
        <ele>763.66</ele>
        <time>2019-12-19T10:57:54.000Z</time>
      </trkpt>
      <trkpt lat="44.81444" lon="5.10395">
        <ele>764.38</ele>
        <time>2019-12-19T10:58:04.000Z</time>
      </trkpt>
      <trkpt lat="44.81441" lon="5.10407">
        <ele>763</ele>
        <time>2019-12-19T10:58:16.000Z</time>
      </trkpt>
      <trkpt lat="44.81434" lon="5.10416">
        <ele>761.47</ele>
        <time>2019-12-19T10:58:28.000Z</time>
      </trkpt>
      <trkpt lat="44.81427" lon="5.10426">
        <ele>760.17</ele>
        <time>2019-12-19T10:58:38.000Z</time>
      </trkpt>
      <trkpt lat="44.81417" lon="5.10436">
        <ele>759.2</ele>
        <time>2019-12-19T10:58:48.000Z</time>
      </trkpt>
      <trkpt lat="44.81416" lon="5.10451">
        <ele>759.12</ele>
        <time>2019-12-19T10:58:58.000Z</time>
      </trkpt>
      <trkpt lat="44.81409" lon="5.10463">
        <ele>759.12</ele>
        <time>2019-12-19T10:59:08.000Z</time>
      </trkpt>
      <trkpt lat="44.814" lon="5.10475">
        <ele>759.2</ele>
        <time>2019-12-19T10:59:18.000Z</time>
      </trkpt>
      <trkpt lat="44.81392" lon="5.10494">
        <ele>759.41</ele>
        <time>2019-12-19T10:59:28.000Z</time>
      </trkpt>
      <trkpt lat="44.81385" lon="5.10501">
        <ele>759.19</ele>
        <time>2019-12-19T11:03:39.000Z</time>
      </trkpt>
      <trkpt lat="44.81376" lon="5.10495">
        <ele>758.89</ele>
        <time>2019-12-19T11:23:54.000Z</time>
      </trkpt>
      <trkpt lat="44.81363" lon="5.10499">
        <ele>758.68</ele>
        <time>2019-12-19T11:24:04.000Z</time>
      </trkpt>
      <trkpt lat="44.81353" lon="5.10498">
        <ele>758.77</ele>
        <time>2019-12-19T11:24:17.000Z</time>
      </trkpt>
      <trkpt lat="44.81343" lon="5.10504">
        <ele>759.1</ele>
        <time>2019-12-19T11:24:27.000Z</time>
      </trkpt>
      <trkpt lat="44.81332" lon="5.10511">
        <ele>759.69</ele>
        <time>2019-12-19T11:24:39.000Z</time>
      </trkpt>
      <trkpt lat="44.8132" lon="5.10516">
        <ele>761.05</ele>
        <time>2019-12-19T11:24:49.000Z</time>
      </trkpt>
      <trkpt lat="44.81311" lon="5.10524">
        <ele>761.75</ele>
        <time>2019-12-19T11:24:59.000Z</time>
      </trkpt>
      <trkpt lat="44.81304" lon="5.10531">
        <ele>762.24</ele>
        <time>2019-12-19T11:25:09.000Z</time>
      </trkpt>
      <trkpt lat="44.81294" lon="5.10538">
        <ele>762.38</ele>
        <time>2019-12-19T11:25:19.000Z</time>
      </trkpt>
      <trkpt lat="44.81284" lon="5.10538">
        <ele>763.76</ele>
        <time>2019-12-19T11:25:29.000Z</time>
      </trkpt>
      <trkpt lat="44.81276" lon="5.10546">
        <ele>762.65</ele>
        <time>2019-12-19T11:25:39.000Z</time>
      </trkpt>
      <trkpt lat="44.8127" lon="5.10555">
        <ele>760.65</ele>
        <time>2019-12-19T11:29:11.000Z</time>
      </trkpt>
      <trkpt lat="44.81262" lon="5.10563">
        <ele>759</ele>
        <time>2019-12-19T11:29:23.000Z</time>
      </trkpt>
      <trkpt lat="44.8125" lon="5.1057">
        <ele>757.17</ele>
        <time>2019-12-19T11:29:33.000Z</time>
      </trkpt>
      <trkpt lat="44.81239" lon="5.10576">
        <ele>755.72</ele>
        <time>2019-12-19T11:29:43.000Z</time>
      </trkpt>
      <trkpt lat="44.81227" lon="5.10576">
        <ele>754.83</ele>
        <time>2019-12-19T11:29:53.000Z</time>
      </trkpt>
      <trkpt lat="44.81214" lon="5.10577">
        <ele>753.6</ele>
        <time>2019-12-19T11:30:03.000Z</time>
      </trkpt>
      <trkpt lat="44.812" lon="5.10577">
        <ele>752.54</ele>
        <time>2019-12-19T11:30:13.000Z</time>
      </trkpt>
      <trkpt lat="44.81187" lon="5.10576">
        <ele>751.58</ele>
        <time>2019-12-19T11:30:23.000Z</time>
      </trkpt>
      <trkpt lat="44.81176" lon="5.10572">
        <ele>751.4</ele>
        <time>2019-12-19T11:30:33.000Z</time>
      </trkpt>
      <trkpt lat="44.81163" lon="5.10574">
        <ele>750.47</ele>
        <time>2019-12-19T11:30:43.000Z</time>
      </trkpt>
      <trkpt lat="44.8115" lon="5.10577">
        <ele>749.83</ele>
        <time>2019-12-19T11:30:53.000Z</time>
      </trkpt>
      <trkpt lat="44.81138" lon="5.10581">
        <ele>749.61</ele>
        <time>2019-12-19T11:31:03.000Z</time>
      </trkpt>
      <trkpt lat="44.81126" lon="5.10579">
        <ele>749.71</ele>
        <time>2019-12-19T11:31:13.000Z</time>
      </trkpt>
      <trkpt lat="44.81113" lon="5.1058">
        <ele>749.73</ele>
        <time>2019-12-19T11:31:23.000Z</time>
      </trkpt>
      <trkpt lat="44.81099" lon="5.10579">
        <ele>749.58</ele>
        <time>2019-12-19T11:31:33.000Z</time>
      </trkpt>
      <trkpt lat="44.81085" lon="5.10581">
        <ele>749.05</ele>
        <time>2019-12-19T11:31:43.000Z</time>
      </trkpt>
      <trkpt lat="44.81073" lon="5.10581">
        <ele>748.16</ele>
        <time>2019-12-19T11:31:53.000Z</time>
      </trkpt>
      <trkpt lat="44.81064" lon="5.10582">
        <ele>747.25</ele>
        <time>2019-12-19T11:32:07.000Z</time>
      </trkpt>
      <trkpt lat="44.81055" lon="5.10586">
        <ele>746.28</ele>
        <time>2019-12-19T11:32:35.000Z</time>
      </trkpt>
      <trkpt lat="44.81045" lon="5.10584">
        <ele>744.93</ele>
        <time>2019-12-19T11:32:56.000Z</time>
      </trkpt>
      <trkpt lat="44.81034" lon="5.10583">
        <ele>743.46</ele>
        <time>2019-12-19T11:33:06.000Z</time>
      </trkpt>
      <trkpt lat="44.81024" lon="5.1058">
        <ele>742.37</ele>
        <time>2019-12-19T11:33:22.000Z</time>
      </trkpt>
      <trkpt lat="44.81015" lon="5.10582">
        <ele>741.25</ele>
        <time>2019-12-19T11:33:32.000Z</time>
      </trkpt>
      <trkpt lat="44.81006" lon="5.10581">
        <ele>740.45</ele>
        <time>2019-12-19T11:33:42.000Z</time>
      </trkpt>
      <trkpt lat="44.80994" lon="5.10576">
        <ele>739.97</ele>
        <time>2019-12-19T11:33:52.000Z</time>
      </trkpt>
      <trkpt lat="44.80982" lon="5.10569">
        <ele>740.15</ele>
        <time>2019-12-19T11:34:02.000Z</time>
      </trkpt>
      <trkpt lat="44.80971" lon="5.10562">
        <ele>740.46</ele>
        <time>2019-12-19T11:34:12.000Z</time>
      </trkpt>
      <trkpt lat="44.8096" lon="5.10557">
        <ele>740.49</ele>
        <time>2019-12-19T11:34:22.000Z</time>
      </trkpt>
      <trkpt lat="44.80948" lon="5.1055">
        <ele>740.24</ele>
        <time>2019-12-19T11:34:32.000Z</time>
      </trkpt>
      <trkpt lat="44.80935" lon="5.10543">
        <ele>739.55</ele>
        <time>2019-12-19T11:34:42.000Z</time>
      </trkpt>
      <trkpt lat="44.80927" lon="5.10535">
        <ele>738.81</ele>
        <time>2019-12-19T11:34:52.000Z</time>
      </trkpt>
      <trkpt lat="44.80918" lon="5.10526">
        <ele>737.82</ele>
        <time>2019-12-19T11:35:02.000Z</time>
      </trkpt>
      <trkpt lat="44.80909" lon="5.10513">
        <ele>736.45</ele>
        <time>2019-12-19T11:35:12.000Z</time>
      </trkpt>
      <trkpt lat="44.80899" lon="5.10501">
        <ele>734.85</ele>
        <time>2019-12-19T11:35:22.000Z</time>
      </trkpt>
      <trkpt lat="44.80892" lon="5.10487">
        <ele>733.4</ele>
        <time>2019-12-19T11:35:32.000Z</time>
      </trkpt>
      <trkpt lat="44.80885" lon="5.10475">
        <ele>732.07</ele>
        <time>2019-12-19T11:35:42.000Z</time>
      </trkpt>
      <trkpt lat="44.80875" lon="5.10474">
        <ele>731.15</ele>
        <time>2019-12-19T11:35:52.000Z</time>
      </trkpt>
      <trkpt lat="44.80866" lon="5.1048">
        <ele>730.75</ele>
        <time>2019-12-19T11:36:02.000Z</time>
      </trkpt>
      <trkpt lat="44.80855" lon="5.10489">
        <ele>730.18</ele>
        <time>2019-12-19T11:36:12.000Z</time>
      </trkpt>
      <trkpt lat="44.80844" lon="5.10497">
        <ele>729.66</ele>
        <time>2019-12-19T11:36:22.000Z</time>
      </trkpt>
      <trkpt lat="44.80834" lon="5.10501">
        <ele>729.09</ele>
        <time>2019-12-19T11:36:32.000Z</time>
      </trkpt>
      <trkpt lat="44.8082" lon="5.10497">
        <ele>728.08</ele>
        <time>2019-12-19T11:36:42.000Z</time>
      </trkpt>
      <trkpt lat="44.80808" lon="5.10499">
        <ele>727.47</ele>
        <time>2019-12-19T11:36:52.000Z</time>
      </trkpt>
      <trkpt lat="44.80799" lon="5.10502">
        <ele>727.15</ele>
        <time>2019-12-19T11:37:02.000Z</time>
      </trkpt>
      <trkpt lat="44.80783" lon="5.10508">
        <ele>726.56</ele>
        <time>2019-12-19T11:37:12.000Z</time>
      </trkpt>
      <trkpt lat="44.80772" lon="5.10516">
        <ele>726.07</ele>
        <time>2019-12-19T11:37:22.000Z</time>
      </trkpt>
      <trkpt lat="44.8076" lon="5.10516">
        <ele>725.48</ele>
        <time>2019-12-19T11:37:32.000Z</time>
      </trkpt>
      <trkpt lat="44.8075" lon="5.10509">
        <ele>724.98</ele>
        <time>2019-12-19T11:37:42.000Z</time>
      </trkpt>
      <trkpt lat="44.80735" lon="5.10511">
        <ele>724.13</ele>
        <time>2019-12-19T11:37:52.000Z</time>
      </trkpt>
      <trkpt lat="44.80721" lon="5.1051">
        <ele>723.25</ele>
        <time>2019-12-19T11:38:02.000Z</time>
      </trkpt>
      <trkpt lat="44.8071" lon="5.10506">
        <ele>722.53</ele>
        <time>2019-12-19T11:38:12.000Z</time>
      </trkpt>
      <trkpt lat="44.80698" lon="5.10497">
        <ele>721.78</ele>
        <time>2019-12-19T11:38:22.000Z</time>
      </trkpt>
      <trkpt lat="44.80689" lon="5.10498">
        <ele>721.23</ele>
        <time>2019-12-19T11:38:43.000Z</time>
      </trkpt>
      <trkpt lat="44.8068" lon="5.10502">
        <ele>720.7</ele>
        <time>2019-12-19T11:39:49.000Z</time>
      </trkpt>
      <trkpt lat="44.8067" lon="5.10503">
        <ele>720.14</ele>
        <time>2019-12-19T11:39:59.000Z</time>
      </trkpt>
      <trkpt lat="44.80655" lon="5.10507">
        <ele>719.47</ele>
        <time>2019-12-19T11:40:09.000Z</time>
      </trkpt>
      <trkpt lat="44.80644" lon="5.10512">
        <ele>718.96</ele>
        <time>2019-12-19T11:40:19.000Z</time>
      </trkpt>
      <trkpt lat="44.80633" lon="5.10513">
        <ele>718.53</ele>
        <time>2019-12-19T11:40:29.000Z</time>
      </trkpt>
      <trkpt lat="44.80618" lon="5.10513">
        <ele>718</ele>
        <time>2019-12-19T11:40:39.000Z</time>
      </trkpt>
      <trkpt lat="44.80605" lon="5.10513">
        <ele>717.58</ele>
        <time>2019-12-19T11:40:49.000Z</time>
      </trkpt>
      <trkpt lat="44.80592" lon="5.10512">
        <ele>717.21</ele>
        <time>2019-12-19T11:40:59.000Z</time>
      </trkpt>
      <trkpt lat="44.80581" lon="5.10512">
        <ele>716.89</ele>
        <time>2019-12-19T11:41:09.000Z</time>
      </trkpt>
      <trkpt lat="44.80569" lon="5.10507">
        <ele>716.58</ele>
        <time>2019-12-19T11:41:19.000Z</time>
      </trkpt>
      <trkpt lat="44.80559" lon="5.10506">
        <ele>716.28</ele>
        <time>2019-12-19T11:41:29.000Z</time>
      </trkpt>
      <trkpt lat="44.80549" lon="5.10503">
        <ele>715.99</ele>
        <time>2019-12-19T11:41:40.000Z</time>
      </trkpt>
      <trkpt lat="44.8054" lon="5.10511">
        <ele>715.83</ele>
        <time>2019-12-19T11:42:03.000Z</time>
      </trkpt>
      <trkpt lat="44.80531" lon="5.10515">
        <ele>715.75</ele>
        <time>2019-12-19T11:42:42.000Z</time>
      </trkpt>
      <trkpt lat="44.80523" lon="5.10508">
        <ele>715.47</ele>
        <time>2019-12-19T11:42:52.000Z</time>
      </trkpt>
      <trkpt lat="44.80514" lon="5.10498">
        <ele>715.11</ele>
        <time>2019-12-19T11:43:02.000Z</time>
      </trkpt>
      <trkpt lat="44.80501" lon="5.10488">
        <ele>714.81</ele>
        <time>2019-12-19T11:43:12.000Z</time>
      </trkpt>
      <trkpt lat="44.80491" lon="5.10482">
        <ele>714.62</ele>
        <time>2019-12-19T11:43:22.000Z</time>
      </trkpt>
      <trkpt lat="44.80481" lon="5.10471">
        <ele>714.33</ele>
        <time>2019-12-19T11:43:32.000Z</time>
      </trkpt>
      <trkpt lat="44.80472" lon="5.10461">
        <ele>713.92</ele>
        <time>2019-12-19T11:43:42.000Z</time>
      </trkpt>
      <trkpt lat="44.80459" lon="5.10459">
        <ele>713.44</ele>
        <time>2019-12-19T11:43:52.000Z</time>
      </trkpt>
      <trkpt lat="44.80448" lon="5.10464">
        <ele>713.38</ele>
        <time>2019-12-19T11:44:02.000Z</time>
      </trkpt>
      <trkpt lat="44.80439" lon="5.10468">
        <ele>713.53</ele>
        <time>2019-12-19T11:44:21.000Z</time>
      </trkpt>
      <trkpt lat="44.80431" lon="5.10476">
        <ele>714.07</ele>
        <time>2019-12-19T11:44:33.000Z</time>
      </trkpt>
      <trkpt lat="44.80424" lon="5.10487">
        <ele>714.98</ele>
        <time>2019-12-19T11:44:46.000Z</time>
      </trkpt>
      <trkpt lat="44.80415" lon="5.10494">
        <ele>715.57</ele>
        <time>2019-12-19T11:44:57.000Z</time>
      </trkpt>
      <trkpt lat="44.80409" lon="5.10503">
        <ele>716.29</ele>
        <time>2019-12-19T11:45:25.000Z</time>
      </trkpt>
      <trkpt lat="44.80402" lon="5.10512">
        <ele>717.04</ele>
        <time>2019-12-19T11:45:42.000Z</time>
      </trkpt>
      <trkpt lat="44.80397" lon="5.10523">
        <ele>717.9</ele>
        <time>2019-12-19T11:45:52.000Z</time>
      </trkpt>
      <trkpt lat="44.80392" lon="5.10534">
        <ele>718.69</ele>
        <time>2019-12-19T11:46:02.000Z</time>
      </trkpt>
      <trkpt lat="44.80385" lon="5.10543">
        <ele>719.38</ele>
        <time>2019-12-19T11:46:12.000Z</time>
      </trkpt>
      <trkpt lat="44.80379" lon="5.10557">
        <ele>720.3</ele>
        <time>2019-12-19T11:46:22.000Z</time>
      </trkpt>
      <trkpt lat="44.80381" lon="5.10572">
        <ele>721.06</ele>
        <time>2019-12-19T11:46:32.000Z</time>
      </trkpt>
      <trkpt lat="44.80383" lon="5.10585">
        <ele>721.65</ele>
        <time>2019-12-19T11:46:42.000Z</time>
      </trkpt>
      <trkpt lat="44.80381" lon="5.10598">
        <ele>722.21</ele>
        <time>2019-12-19T11:46:59.000Z</time>
      </trkpt>
      <trkpt lat="44.80381" lon="5.10613">
        <ele>722.69</ele>
        <time>2019-12-19T11:47:16.000Z</time>
      </trkpt>
      <trkpt lat="44.80372" lon="5.10616">
        <ele>722.95</ele>
        <time>2019-12-19T11:47:27.000Z</time>
      </trkpt>
      <trkpt lat="44.80363" lon="5.1062">
        <ele>723.26</ele>
        <time>2019-12-19T11:47:38.000Z</time>
      </trkpt>
      <trkpt lat="44.80351" lon="5.10621">
        <ele>723.46</ele>
        <time>2019-12-19T11:47:48.000Z</time>
      </trkpt>
      <trkpt lat="44.8034" lon="5.10624">
        <ele>723.73</ele>
        <time>2019-12-19T11:47:58.000Z</time>
      </trkpt>
      <trkpt lat="44.80328" lon="5.10629">
        <ele>723.99</ele>
        <time>2019-12-19T11:48:08.000Z</time>
      </trkpt>
      <trkpt lat="44.80319" lon="5.10631">
        <ele>724.09</ele>
        <time>2019-12-19T11:49:09.000Z</time>
      </trkpt>
      <trkpt lat="44.8031" lon="5.10636">
        <ele>724.24</ele>
        <time>2019-12-19T11:49:20.000Z</time>
      </trkpt>
      <trkpt lat="44.80299" lon="5.10639">
        <ele>724.32</ele>
        <time>2019-12-19T11:49:30.000Z</time>
      </trkpt>
      <trkpt lat="44.80288" lon="5.10643">
        <ele>724.4</ele>
        <time>2019-12-19T11:49:40.000Z</time>
      </trkpt>
      <trkpt lat="44.80275" lon="5.10648">
        <ele>724.5</ele>
        <time>2019-12-19T11:49:50.000Z</time>
      </trkpt>
      <trkpt lat="44.80262" lon="5.10648">
        <ele>724.45</ele>
        <time>2019-12-19T11:50:00.000Z</time>
      </trkpt>
      <trkpt lat="44.8025" lon="5.10651">
        <ele>724.59</ele>
        <time>2019-12-19T11:50:10.000Z</time>
      </trkpt>
      <trkpt lat="44.80234" lon="5.10654">
        <ele>724.8</ele>
        <time>2019-12-19T11:50:20.000Z</time>
      </trkpt>
      <trkpt lat="44.8022" lon="5.10659">
        <ele>725.12</ele>
        <time>2019-12-19T11:50:30.000Z</time>
      </trkpt>
      <trkpt lat="44.80207" lon="5.10661">
        <ele>725.34</ele>
        <time>2019-12-19T11:50:40.000Z</time>
      </trkpt>
      <trkpt lat="44.80196" lon="5.10664">
        <ele>725.58</ele>
        <time>2019-12-19T11:50:50.000Z</time>
      </trkpt>
      <trkpt lat="44.80185" lon="5.10666">
        <ele>725.75</ele>
        <time>2019-12-19T11:51:00.000Z</time>
      </trkpt>
      <trkpt lat="44.80176" lon="5.10667">
        <ele>725.89</ele>
        <time>2019-12-19T11:51:23.000Z</time>
      </trkpt>
      <trkpt lat="44.80165" lon="5.10668">
        <ele>726.04</ele>
        <time>2019-12-19T11:51:33.000Z</time>
      </trkpt>
      <trkpt lat="44.80154" lon="5.10672">
        <ele>726.19</ele>
        <time>2019-12-19T11:51:43.000Z</time>
      </trkpt>
      <trkpt lat="44.80143" lon="5.10671">
        <ele>726.26</ele>
        <time>2019-12-19T11:51:53.000Z</time>
      </trkpt>
      <trkpt lat="44.80133" lon="5.1067">
        <ele>726.32</ele>
        <time>2019-12-19T11:52:07.000Z</time>
      </trkpt>
      <trkpt lat="44.8012" lon="5.10677">
        <ele>726.59</ele>
        <time>2019-12-19T11:52:17.000Z</time>
      </trkpt>
      <trkpt lat="44.8011" lon="5.10679">
        <ele>726.81</ele>
        <time>2019-12-19T11:52:27.000Z</time>
      </trkpt>
      <trkpt lat="44.80095" lon="5.10685">
        <ele>727.41</ele>
        <time>2019-12-19T11:52:37.000Z</time>
      </trkpt>
      <trkpt lat="44.80084" lon="5.10691">
        <ele>728.07</ele>
        <time>2019-12-19T11:52:47.000Z</time>
      </trkpt>
      <trkpt lat="44.80073" lon="5.10691">
        <ele>728.51</ele>
        <time>2019-12-19T11:52:57.000Z</time>
      </trkpt>
      <trkpt lat="44.8006" lon="5.10697">
        <ele>729.48</ele>
        <time>2019-12-19T11:53:07.000Z</time>
      </trkpt>
      <trkpt lat="44.8005" lon="5.10697">
        <ele>730.05</ele>
        <time>2019-12-19T11:53:17.000Z</time>
      </trkpt>
      <trkpt lat="44.80037" lon="5.10699">
        <ele>730.87</ele>
        <time>2019-12-19T11:53:27.000Z</time>
      </trkpt>
      <trkpt lat="44.80024" lon="5.10701">
        <ele>731.65</ele>
        <time>2019-12-19T11:53:37.000Z</time>
      </trkpt>
      <trkpt lat="44.80009" lon="5.10703">
        <ele>732.47</ele>
        <time>2019-12-19T11:53:47.000Z</time>
      </trkpt>
      <trkpt lat="44.79996" lon="5.10704">
        <ele>733.09</ele>
        <time>2019-12-19T11:53:57.000Z</time>
      </trkpt>
      <trkpt lat="44.79984" lon="5.10704">
        <ele>733.49</ele>
        <time>2019-12-19T11:54:07.000Z</time>
      </trkpt>
      <trkpt lat="44.79974" lon="5.10705">
        <ele>733.85</ele>
        <time>2019-12-19T11:54:17.000Z</time>
      </trkpt>
      <trkpt lat="44.79962" lon="5.10708">
        <ele>734.32</ele>
        <time>2019-12-19T11:54:27.000Z</time>
      </trkpt>
      <trkpt lat="44.79947" lon="5.10708">
        <ele>734.76</ele>
        <time>2019-12-19T11:54:37.000Z</time>
      </trkpt>
      <trkpt lat="44.79937" lon="5.10706">
        <ele>734.99</ele>
        <time>2019-12-19T11:54:47.000Z</time>
      </trkpt>
      <trkpt lat="44.79925" lon="5.10704">
        <ele>735.29</ele>
        <time>2019-12-19T11:54:57.000Z</time>
      </trkpt>
      <trkpt lat="44.79915" lon="5.10703">
        <ele>735.74</ele>
        <time>2019-12-19T11:55:07.000Z</time>
      </trkpt>
      <trkpt lat="44.79903" lon="5.10704">
        <ele>736.39</ele>
        <time>2019-12-19T11:55:17.000Z</time>
      </trkpt>
      <trkpt lat="44.79892" lon="5.10702">
        <ele>736.94</ele>
        <time>2019-12-19T11:55:27.000Z</time>
      </trkpt>
      <trkpt lat="44.7988" lon="5.107">
        <ele>737.5</ele>
        <time>2019-12-19T11:55:37.000Z</time>
      </trkpt>
      <trkpt lat="44.79867" lon="5.10696">
        <ele>737.81</ele>
        <time>2019-12-19T11:55:47.000Z</time>
      </trkpt>
      <trkpt lat="44.79851" lon="5.10694">
        <ele>738.54</ele>
        <time>2019-12-19T11:55:57.000Z</time>
      </trkpt>
      <trkpt lat="44.7984" lon="5.10689">
        <ele>738.52</ele>
        <time>2019-12-19T11:56:07.000Z</time>
      </trkpt>
      <trkpt lat="44.79829" lon="5.10687">
        <ele>738.82</ele>
        <time>2019-12-19T11:56:17.000Z</time>
      </trkpt>
      <trkpt lat="44.79817" lon="5.10687">
        <ele>739.6</ele>
        <time>2019-12-19T11:56:27.000Z</time>
      </trkpt>
      <trkpt lat="44.79803" lon="5.10687">
        <ele>740.57</ele>
        <time>2019-12-19T11:56:37.000Z</time>
      </trkpt>
      <trkpt lat="44.79793" lon="5.10685">
        <ele>740.81</ele>
        <time>2019-12-19T11:56:47.000Z</time>
      </trkpt>
      <trkpt lat="44.79778" lon="5.10683">
        <ele>741.06</ele>
        <time>2019-12-19T11:56:57.000Z</time>
      </trkpt>
      <trkpt lat="44.79764" lon="5.10676">
        <ele>739.62</ele>
        <time>2019-12-19T11:57:07.000Z</time>
      </trkpt>
      <trkpt lat="44.79751" lon="5.10672">
        <ele>738.87</ele>
        <time>2019-12-19T11:57:17.000Z</time>
      </trkpt>
      <trkpt lat="44.79738" lon="5.10669">
        <ele>738.69</ele>
        <time>2019-12-19T11:57:27.000Z</time>
      </trkpt>
      <trkpt lat="44.79727" lon="5.10664">
        <ele>738.97</ele>
        <time>2019-12-19T11:57:37.000Z</time>
      </trkpt>
      <trkpt lat="44.79714" lon="5.10658">
        <ele>739.6</ele>
        <time>2019-12-19T11:57:47.000Z</time>
      </trkpt>
      <trkpt lat="44.79702" lon="5.1065">
        <ele>740.36</ele>
        <time>2019-12-19T11:57:57.000Z</time>
      </trkpt>
      <trkpt lat="44.79692" lon="5.10643">
        <ele>740.86</ele>
        <time>2019-12-19T11:58:07.000Z</time>
      </trkpt>
      <trkpt lat="44.79681" lon="5.10637">
        <ele>741.18</ele>
        <time>2019-12-19T11:58:17.000Z</time>
      </trkpt>
      <trkpt lat="44.79672" lon="5.10632">
        <ele>741.05</ele>
        <time>2019-12-19T11:58:44.000Z</time>
      </trkpt>
      <trkpt lat="44.79665" lon="5.10624">
        <ele>740.21</ele>
        <time>2019-12-19T11:58:54.000Z</time>
      </trkpt>
      <trkpt lat="44.79653" lon="5.10614">
        <ele>738.87</ele>
        <time>2019-12-19T11:59:04.000Z</time>
      </trkpt>
      <trkpt lat="44.79645" lon="5.10609">
        <ele>737.88</ele>
        <time>2019-12-19T11:59:19.000Z</time>
      </trkpt>
      <trkpt lat="44.79637" lon="5.10601">
        <ele>736.61</ele>
        <time>2019-12-19T11:59:29.000Z</time>
      </trkpt>
      <trkpt lat="44.79625" lon="5.10593">
        <ele>734.99</ele>
        <time>2019-12-19T11:59:39.000Z</time>
      </trkpt>
      <trkpt lat="44.79614" lon="5.1059">
        <ele>733.87</ele>
        <time>2019-12-19T11:59:49.000Z</time>
      </trkpt>
      <trkpt lat="44.79604" lon="5.10584">
        <ele>732.79</ele>
        <time>2019-12-19T11:59:59.000Z</time>
      </trkpt>
      <trkpt lat="44.79592" lon="5.10576">
        <ele>732.07</ele>
        <time>2019-12-19T12:00:09.000Z</time>
      </trkpt>
      <trkpt lat="44.79579" lon="5.10576">
        <ele>731.25</ele>
        <time>2019-12-19T12:00:19.000Z</time>
      </trkpt>
      <trkpt lat="44.79567" lon="5.10571">
        <ele>731.65</ele>
        <time>2019-12-19T12:00:29.000Z</time>
      </trkpt>
      <trkpt lat="44.79557" lon="5.1057">
        <ele>732.13</ele>
        <time>2019-12-19T12:00:42.000Z</time>
      </trkpt>
      <trkpt lat="44.79547" lon="5.10574">
        <ele>731.91</ele>
        <time>2019-12-19T12:00:52.000Z</time>
      </trkpt>
      <trkpt lat="44.79538" lon="5.10574">
        <ele>731.79</ele>
        <time>2019-12-19T12:01:07.000Z</time>
      </trkpt>
      <trkpt lat="44.79529" lon="5.10577">
        <ele>730.81</ele>
        <time>2019-12-19T12:01:17.000Z</time>
      </trkpt>
      <trkpt lat="44.7952" lon="5.10574">
        <ele>730.67</ele>
        <time>2019-12-19T12:01:28.000Z</time>
      </trkpt>
      <trkpt lat="44.7951" lon="5.10572">
        <ele>729.43</ele>
        <time>2019-12-19T12:01:38.000Z</time>
      </trkpt>
      <trkpt lat="44.79501" lon="5.10574">
        <ele>725.67</ele>
        <time>2019-12-19T12:01:48.000Z</time>
      </trkpt>
      <trkpt lat="44.79494" lon="5.10566">
        <ele>725.35</ele>
        <time>2019-12-19T12:02:00.000Z</time>
      </trkpt>
      <trkpt lat="44.79486" lon="5.1056">
        <ele>722.88</ele>
        <time>2019-12-19T12:02:11.000Z</time>
      </trkpt>
      <trkpt lat="44.79479" lon="5.1055">
        <ele>721.39</ele>
        <time>2019-12-19T12:02:23.000Z</time>
      </trkpt>
      <trkpt lat="44.79473" lon="5.10542">
        <ele>718.96</ele>
        <time>2019-12-19T12:04:39.000Z</time>
      </trkpt>
      <trkpt lat="44.79469" lon="5.1053">
        <ele>718.67</ele>
        <time>2019-12-19T12:09:36.000Z</time>
      </trkpt>
      <trkpt lat="44.79468" lon="5.10516">
        <ele>718.78</ele>
        <time>2019-12-19T12:09:49.000Z</time>
      </trkpt>
      <trkpt lat="44.79468" lon="5.10503">
        <ele>717.97</ele>
        <time>2019-12-19T12:10:09.000Z</time>
      </trkpt>
      <trkpt lat="44.79477" lon="5.10499">
        <ele>721.45</ele>
        <time>2019-12-19T12:10:23.000Z</time>
      </trkpt>
      <trkpt lat="44.79483" lon="5.10489">
        <ele>720.73</ele>
        <time>2019-12-19T12:10:37.000Z</time>
      </trkpt>
      <trkpt lat="44.79489" lon="5.1048">
        <ele>718.53</ele>
        <time>2019-12-19T12:10:57.000Z</time>
      </trkpt>
      <trkpt lat="44.79496" lon="5.1047">
        <ele>714.72</ele>
        <time>2019-12-19T12:11:14.000Z</time>
      </trkpt>
      <trkpt lat="44.79487" lon="5.10465">
        <ele>709.31</ele>
        <time>2019-12-19T12:11:37.000Z</time>
      </trkpt>
      <trkpt lat="44.79478" lon="5.10468">
        <ele>708.31</ele>
        <time>2019-12-19T12:11:48.000Z</time>
      </trkpt>
      <trkpt lat="44.79469" lon="5.10465">
        <ele>703.84</ele>
        <time>2019-12-19T12:12:00.000Z</time>
      </trkpt>
      <trkpt lat="44.79458" lon="5.10471">
        <ele>703.12</ele>
        <time>2019-12-19T12:12:10.000Z</time>
      </trkpt>
      <trkpt lat="44.7945" lon="5.10478">
        <ele>702.95</ele>
        <time>2019-12-19T12:12:20.000Z</time>
      </trkpt>
      <trkpt lat="44.79441" lon="5.10483">
        <ele>700.19</ele>
        <time>2019-12-19T12:12:32.000Z</time>
      </trkpt>
      <trkpt lat="44.79433" lon="5.10491">
        <ele>698.2</ele>
        <time>2019-12-19T12:12:46.000Z</time>
      </trkpt>
      <trkpt lat="44.79424" lon="5.10495">
        <ele>693.51</ele>
        <time>2019-12-19T12:12:57.000Z</time>
      </trkpt>
      <trkpt lat="44.79416" lon="5.10506">
        <ele>689.7</ele>
        <time>2019-12-19T12:13:12.000Z</time>
      </trkpt>
      <trkpt lat="44.79412" lon="5.10518">
        <ele>685.6</ele>
        <time>2019-12-19T12:13:26.000Z</time>
      </trkpt>
      <trkpt lat="44.79409" lon="5.10531">
        <ele>680.21</ele>
        <time>2019-12-19T12:13:38.000Z</time>
      </trkpt>
      <trkpt lat="44.79411" lon="5.10543">
        <ele>677.06</ele>
        <time>2019-12-19T12:13:50.000Z</time>
      </trkpt>
      <trkpt lat="44.79417" lon="5.10554">
        <ele>676.01</ele>
        <time>2019-12-19T12:14:15.000Z</time>
      </trkpt>
      <trkpt lat="44.79417" lon="5.10567">
        <ele>670.32</ele>
        <time>2019-12-19T12:14:28.000Z</time>
      </trkpt>
      <trkpt lat="44.79411" lon="5.10578">
        <ele>662.66</ele>
        <time>2019-12-19T12:14:44.000Z</time>
      </trkpt>
      <trkpt lat="44.79414" lon="5.10591">
        <ele>660.06</ele>
        <time>2019-12-19T12:16:09.000Z</time>
      </trkpt>
      <trkpt lat="44.7942" lon="5.10602">
        <ele>659.24</ele>
        <time>2019-12-19T12:16:23.000Z</time>
      </trkpt>
      <trkpt lat="44.79423" lon="5.10614">
        <ele>656.4</ele>
        <time>2019-12-19T12:16:35.000Z</time>
      </trkpt>
      <trkpt lat="44.79428" lon="5.10625">
        <ele>654.04</ele>
        <time>2019-12-19T12:16:45.000Z</time>
      </trkpt>
      <trkpt lat="44.79433" lon="5.10637">
        <ele>651.01</ele>
        <time>2019-12-19T12:16:55.000Z</time>
      </trkpt>
      <trkpt lat="44.79439" lon="5.10647">
        <ele>648.88</ele>
        <time>2019-12-19T12:17:06.000Z</time>
      </trkpt>
      <trkpt lat="44.79443" lon="5.10659">
        <ele>644.81</ele>
        <time>2019-12-19T12:17:35.000Z</time>
      </trkpt>
      <trkpt lat="44.79451" lon="5.10666">
        <ele>643.44</ele>
        <time>2019-12-19T12:17:48.000Z</time>
      </trkpt>
      <trkpt lat="44.79444" lon="5.10657">
        <ele>645.66</ele>
        <time>2019-12-19T12:18:25.000Z</time>
      </trkpt>
      <trkpt lat="44.79435" lon="5.10651">
        <ele>645.48</ele>
        <time>2019-12-19T12:18:36.000Z</time>
      </trkpt>
      <trkpt lat="44.79425" lon="5.1065">
        <ele>642.53</ele>
        <time>2019-12-19T12:18:47.000Z</time>
      </trkpt>
      <trkpt lat="44.79417" lon="5.10642">
        <ele>642.1</ele>
        <time>2019-12-19T12:19:13.000Z</time>
      </trkpt>
      <trkpt lat="44.79416" lon="5.10656">
        <ele>636.37</ele>
        <time>2019-12-19T12:19:27.000Z</time>
      </trkpt>
      <trkpt lat="44.79407" lon="5.10661">
        <ele>631.2</ele>
        <time>2019-12-19T12:20:33.000Z</time>
      </trkpt>
      <trkpt lat="44.79397" lon="5.10658">
        <ele>628.31</ele>
        <time>2019-12-19T12:20:43.000Z</time>
      </trkpt>
      <trkpt lat="44.79387" lon="5.10654">
        <ele>625.52</ele>
        <time>2019-12-19T12:20:53.000Z</time>
      </trkpt>
      <trkpt lat="44.79376" lon="5.10654">
        <ele>620.79</ele>
        <time>2019-12-19T12:21:03.000Z</time>
      </trkpt>
      <trkpt lat="44.79366" lon="5.10652">
        <ele>617.46</ele>
        <time>2019-12-19T12:21:13.000Z</time>
      </trkpt>
      <trkpt lat="44.79356" lon="5.10647">
        <ele>614.86</ele>
        <time>2019-12-19T12:21:23.000Z</time>
      </trkpt>
      <trkpt lat="44.79348" lon="5.10639">
        <ele>614.45</ele>
        <time>2019-12-19T12:21:36.000Z</time>
      </trkpt>
      <trkpt lat="44.7934" lon="5.10634">
        <ele>612.93</ele>
        <time>2019-12-19T12:21:46.000Z</time>
      </trkpt>
      <trkpt lat="44.79329" lon="5.10629">
        <ele>610.81</ele>
        <time>2019-12-19T12:21:56.000Z</time>
      </trkpt>
      <trkpt lat="44.79321" lon="5.10623">
        <ele>609.86</ele>
        <time>2019-12-19T12:22:06.000Z</time>
      </trkpt>
      <trkpt lat="44.79312" lon="5.10617">
        <ele>608.24</ele>
        <time>2019-12-19T12:22:18.000Z</time>
      </trkpt>
      <trkpt lat="44.79304" lon="5.1061">
        <ele>606.8</ele>
        <time>2019-12-19T12:22:33.000Z</time>
      </trkpt>
      <trkpt lat="44.79295" lon="5.10607">
        <ele>603.76</ele>
        <time>2019-12-19T12:22:43.000Z</time>
      </trkpt>
      <trkpt lat="44.79286" lon="5.10604">
        <ele>600.9</ele>
        <time>2019-12-19T12:22:57.000Z</time>
      </trkpt>
      <trkpt lat="44.79279" lon="5.10595">
        <ele>599.2</ele>
        <time>2019-12-19T12:23:07.000Z</time>
      </trkpt>
      <trkpt lat="44.79268" lon="5.10595">
        <ele>594.89</ele>
        <time>2019-12-19T12:23:17.000Z</time>
      </trkpt>
      <trkpt lat="44.79259" lon="5.10596">
        <ele>591.01</ele>
        <time>2019-12-19T12:23:43.000Z</time>
      </trkpt>
      <trkpt lat="44.7925" lon="5.1059">
        <ele>587.75</ele>
        <time>2019-12-19T12:23:55.000Z</time>
      </trkpt>
      <trkpt lat="44.79243" lon="5.10597">
        <ele>584.19</ele>
        <time>2019-12-19T12:24:12.000Z</time>
      </trkpt>
      <trkpt lat="44.79248" lon="5.10611">
        <ele>584.84</ele>
        <time>2019-12-19T12:24:22.000Z</time>
      </trkpt>
      <trkpt lat="44.79259" lon="5.10619">
        <ele>587.74</ele>
        <time>2019-12-19T12:24:32.000Z</time>
      </trkpt>
      <trkpt lat="44.79268" lon="5.1063">
        <ele>588.51</ele>
        <time>2019-12-19T12:24:42.000Z</time>
      </trkpt>
      <trkpt lat="44.79277" lon="5.10641">
        <ele>589.07</ele>
        <time>2019-12-19T12:24:52.000Z</time>
      </trkpt>
      <trkpt lat="44.79288" lon="5.10654">
        <ele>589.12</ele>
        <time>2019-12-19T12:25:02.000Z</time>
      </trkpt>
      <trkpt lat="44.79297" lon="5.10668">
        <ele>588.24</ele>
        <time>2019-12-19T12:25:12.000Z</time>
      </trkpt>
      <trkpt lat="44.79302" lon="5.10679">
        <ele>586.93</ele>
        <time>2019-12-19T12:25:46.000Z</time>
      </trkpt>
      <trkpt lat="44.79309" lon="5.1069">
        <ele>586.14</ele>
        <time>2019-12-19T12:25:56.000Z</time>
      </trkpt>
      <trkpt lat="44.7932" lon="5.10701">
        <ele>586.08</ele>
        <time>2019-12-19T12:26:06.000Z</time>
      </trkpt>
      <trkpt lat="44.79328" lon="5.10716">
        <ele>584.78</ele>
        <time>2019-12-19T12:26:16.000Z</time>
      </trkpt>
      <trkpt lat="44.79335" lon="5.1073">
        <ele>583.07</ele>
        <time>2019-12-19T12:26:26.000Z</time>
      </trkpt>
      <trkpt lat="44.79342" lon="5.10743">
        <ele>582.44</ele>
        <time>2019-12-19T12:26:36.000Z</time>
      </trkpt>
      <trkpt lat="44.79349" lon="5.10756">
        <ele>581.3</ele>
        <time>2019-12-19T12:26:46.000Z</time>
      </trkpt>
      <trkpt lat="44.79359" lon="5.10766">
        <ele>582.72</ele>
        <time>2019-12-19T12:26:56.000Z</time>
      </trkpt>
      <trkpt lat="44.79367" lon="5.10776">
        <ele>583.42</ele>
        <time>2019-12-19T12:27:06.000Z</time>
      </trkpt>
      <trkpt lat="44.79374" lon="5.10789">
        <ele>583.86</ele>
        <time>2019-12-19T12:27:16.000Z</time>
      </trkpt>
      <trkpt lat="44.79382" lon="5.10799">
        <ele>585.06</ele>
        <time>2019-12-19T12:27:26.000Z</time>
      </trkpt>
      <trkpt lat="44.79392" lon="5.10811">
        <ele>586.62</ele>
        <time>2019-12-19T12:27:36.000Z</time>
      </trkpt>
      <trkpt lat="44.79399" lon="5.1082">
        <ele>587.61</ele>
        <time>2019-12-19T12:27:46.000Z</time>
      </trkpt>
      <trkpt lat="44.79401" lon="5.1082">
        <ele>588.12</ele>
        <time>2019-12-19T12:27:54.000Z</time>
      </trkpt>
    </trkseg>
  </trk>
</gpx>